QTR744 KBOS-OTHH
Flight info
| Callsign | QTR744 |
|---|---|
| Flight time | 11h 27m |
| Altitude | 35000 |
| Route | CELTK7 CELTK DCT FRILL DCT KANNI N29A GAYBL/M085F350 N29A CARAC DCT JEBBY DCT 44N050W 44N040W/M085F370 44N030W 4330N02000W DCT ARMED/N0488F370 DCT BARDI/N0488F380 M191 DIPOL M871 NVS/N0485F390 DCT NANDO DCT FENXE DCT MABUX DCT RETBA DCT MOPIR DCT LASPO DCT LUXUR UM134 ANB UA411 MORJA DCT SONAK DCT DINUX DCT AGARI DCT ARLOS DCT SALUN N705 MMA/N0484F410 P751 DASUM Y234 FYM M872 WEJ L604 KFA M691 LADNA N318 HAYYA |
| Aircraft | A359/H-SDE2E3GHIJ3J4J5LM1ORWXY/LB1D1 |
Departure
| Time | 2026-05-07 00:20 |
|---|---|
| Airport | Boston Logan International Airport (KBOS) |
Arrival
| Time | 2026-05-07 11:47 |
|---|---|
| Airport | Hamad International Airport (OTHH) |
| Time | Latitude | Longitude | Altitude | Speed | Heading |
|---|---|---|---|---|---|
| 2026-05-06 23:37 | 42.37090 | -71.02147 | 31 ft | 0 kts | 148° |
| 2026-05-06 23:58 | 42.37092 | -71.02149 | 32 ft | 3 kts | 148° |
| 2026-05-06 23:58 | 42.37112 | -71.02167 | 29 ft | 3 kts | 142° |
| 2026-05-06 23:58 | 42.37130 | -71.02188 | 28 ft | 3 kts | 134° |
| 2026-05-06 23:58 | 42.37145 | -71.02212 | 30 ft | 3 kts | 116° |
| 2026-05-06 23:59 | 42.37150 | -71.02239 | 29 ft | 4 kts | 68° |
| 2026-05-06 23:59 | 42.37153 | -71.02241 | 29 ft | 3 kts | 40° |
| 2026-05-06 23:59 | 42.37173 | -71.02224 | 32 ft | 3 kts | 31° |
| 2026-05-06 23:59 | 42.37193 | -71.02206 | 32 ft | 3 kts | 38° |
| 2026-05-07 00:00 | 42.37209 | -71.02185 | 32 ft | 3 kts | 48° |
| 2026-05-07 00:00 | 42.37224 | -71.02157 | 32 ft | 3 kts | 59° |
| 2026-05-07 00:00 | 42.37226 | -71.02151 | 32 ft | 0 kts | 60° |
| 2026-05-07 00:10 | 42.37228 | -71.02142 | 32 ft | 3 kts | 70° |
| 2026-05-07 00:11 | 42.37238 | -71.02084 | 32 ft | 8 kts | 87° |
| 2026-05-07 00:11 | 42.37234 | -71.02031 | 32 ft | 8 kts | 95° |
| 2026-05-07 00:11 | 42.37237 | -71.01947 | 32 ft | 7 kts | 69° |
| 2026-05-07 00:11 | 42.37276 | -71.01904 | 32 ft | 9 kts | 36° |
| 2026-05-07 00:12 | 42.37297 | -71.01850 | 32 ft | 7 kts | 88° |
| 2026-05-07 00:12 | 42.37250 | -71.01763 | 32 ft | 17 kts | 134° |
| 2026-05-07 00:12 | 42.37170 | -71.01656 | 32 ft | 15 kts | 135° |
| 2026-05-07 00:12 | 42.37103 | -71.01567 | 32 ft | 12 kts | 135° |
| 2026-05-07 00:13 | 42.37046 | -71.01490 | 32 ft | 13 kts | 135° |
| 2026-05-07 00:13 | 42.36978 | -71.01399 | 32 ft | 16 kts | 135° |
| 2026-05-07 00:13 | 42.36901 | -71.01292 | 32 ft | 15 kts | 128° |
| 2026-05-07 00:13 | 42.36906 | -71.01203 | 32 ft | 11 kts | 46° |
| 2026-05-07 00:14 | 42.36980 | -71.01119 | 30 ft | 14 kts | 34° |
| 2026-05-07 00:14 | 42.37081 | -71.01050 | 32 ft | 19 kts | 25° |
| 2026-05-07 00:14 | 42.37199 | -71.00972 | 31 ft | 15 kts | 26° |
| 2026-05-07 00:14 | 42.37271 | -71.00926 | 31 ft | 9 kts | 24° |
| 2026-05-07 00:15 | 42.37370 | -71.00872 | 31 ft | 22 kts | 18° |
| 2026-05-07 00:15 | 42.37522 | -71.00800 | 32 ft | 23 kts | 20° |
| 2026-05-07 00:15 | 42.37664 | -71.00731 | 31 ft | 20 kts | 19° |
| 2026-05-07 00:15 | 42.37779 | -71.00676 | 31 ft | 15 kts | 20° |
| 2026-05-07 00:16 | 42.37788 | -71.00671 | 32 ft | 0 kts | 20° |
| 2026-05-07 00:16 | 42.37801 | -71.00664 | 32 ft | 7 kts | 22° |
| 2026-05-07 00:16 | 42.37835 | -71.00625 | 32 ft | 5 kts | 58° |
| 2026-05-07 00:17 | 42.37835 | -71.00589 | 32 ft | 2 kts | 106° |
| 2026-05-07 00:17 | 42.37835 | -71.00586 | 32 ft | 0 kts | 107° |
| 2026-05-07 00:17 | 42.37827 | -71.00552 | 32 ft | 8 kts | 107° |
| 2026-05-07 00:17 | 42.37795 | -71.00485 | 32 ft | 7 kts | 153° |
| 2026-05-07 00:18 | 42.37750 | -71.00495 | 31 ft | 6 kts | 198° |
| 2026-05-07 00:18 | 42.37748 | -71.00496 | 31 ft | 0 kts | 198° |
| 2026-05-07 00:19 | 42.37585 | -71.00572 | 32 ft | 60 kts | 200° |
| 2026-05-07 00:19 | 42.36967 | -71.00872 | 32 ft | 129 kts | 199° |
| 2026-05-07 00:20 | 42.35970 | -71.01348 | 376 ft | 159 kts | 200° |
| 2026-05-07 00:20 | 42.34903 | -71.01720 | 1245 ft | 162 kts | 186° |
| 2026-05-07 00:20 | 42.33721 | -71.01296 | 1670 ft | 194 kts | 152° |
| 2026-05-07 00:20 | 42.32740 | -70.99913 | 1987 ft | 217 kts | 134° |
| 2026-05-07 00:21 | 42.31813 | -70.98191 | 2278 ft | 236 kts | 131° |
| 2026-05-07 00:21 | 42.31181 | -70.96036 | 2591 ft | 260 kts | 99° |
| 2026-05-07 00:21 | 42.31326 | -70.93510 | 2875 ft | 279 kts | 80° |
| 2026-05-07 00:21 | 42.31732 | -70.90888 | 3242 ft | 290 kts | 78° |
| 2026-05-07 00:22 | 42.32160 | -70.88233 | 3795 ft | 293 kts | 78° |
| 2026-05-07 00:22 | 42.32577 | -70.85497 | 4221 ft | 302 kts | 80° |
| 2026-05-07 00:22 | 42.32984 | -70.82680 | 4757 ft | 306 kts | 80° |
| 2026-05-07 00:22 | 42.33220 | -70.79835 | 5413 ft | 300 kts | 96° |
| 2026-05-07 00:23 | 42.32985 | -70.77086 | 6045 ft | 298 kts | 103° |
| 2026-05-07 00:23 | 42.32623 | -70.74295 | 6547 ft | 304 kts | 103° |
| 2026-05-07 00:23 | 42.32252 | -70.71447 | 7034 ft | 311 kts | 103° |
| 2026-05-07 00:23 | 42.31877 | -70.68544 | 7638 ft | 313 kts | 103° |
| 2026-05-07 00:24 | 42.31505 | -70.65647 | 8275 ft | 315 kts | 103° |
| 2026-05-07 00:24 | 42.31130 | -70.62705 | 8892 ft | 319 kts | 103° |
| 2026-05-07 00:24 | 42.30852 | -70.59736 | 9453 ft | 325 kts | 99° |
| 2026-05-07 00:24 | 42.30617 | -70.56676 | 10031 ft | 328 kts | 99° |
| 2026-05-07 00:25 | 42.30371 | -70.53554 | 10376 ft | 341 kts | 101° |
| 2026-05-07 00:25 | 42.30111 | -70.50326 | 10580 ft | 358 kts | 100° |
| 2026-05-07 00:25 | 42.29949 | -70.46866 | 10795 ft | 374 kts | 99° |
| 2026-05-07 00:25 | 42.29658 | -70.43288 | 11024 ft | 388 kts | 102° |
| 2026-05-07 00:26 | 42.29291 | -70.39656 | 11245 ft | 402 kts | 102° |
| 2026-05-07 00:26 | 42.28918 | -70.35833 | 11469 ft | 415 kts | 101° |
| 2026-05-07 00:26 | 42.28554 | -70.31905 | 11744 ft | 426 kts | 101° |
| 2026-05-07 00:26 | 42.28195 | -70.27909 | 12184 ft | 431 kts | 101° |
| 2026-05-07 00:27 | 42.27835 | -70.23851 | 12672 ft | 435 kts | 101° |
| 2026-05-07 00:27 | 42.27479 | -70.19825 | 13134 ft | 439 kts | 101° |
| 2026-05-07 00:27 | 42.27116 | -70.15722 | 13660 ft | 441 kts | 101° |
| 2026-05-07 00:27 | 42.26749 | -70.11578 | 14086 ft | 444 kts | 101° |
| 2026-05-07 00:28 | 42.26359 | -70.07419 | 14515 ft | 446 kts | 103° |
| 2026-05-07 00:28 | 42.25863 | -70.03280 | 14977 ft | 447 kts | 105° |
| 2026-05-07 00:28 | 42.25304 | -69.99169 | 15413 ft | 450 kts | 106° |
| 2026-05-07 00:28 | 42.24717 | -69.95005 | 15816 ft | 453 kts | 106° |
| 2026-05-07 00:29 | 42.24126 | -69.90802 | 16294 ft | 456 kts | 106° |
| 2026-05-07 00:29 | 42.23578 | -69.86557 | 16708 ft | 462 kts | 102° |
| 2026-05-07 00:30 | 42.24282 | -69.73395 | 17964 ft | 480 kts | 82° |
| 2026-05-07 00:30 | 42.24949 | -69.68949 | 18362 ft | 484 kts | 81° |
| 2026-05-07 00:30 | 42.25671 | -69.64477 | 18761 ft | 487 kts | 80° |
| 2026-05-07 00:30 | 42.26397 | -69.60040 | 19149 ft | 489 kts | 80° |
| 2026-05-07 00:31 | 42.27127 | -69.55529 | 19546 ft | 491 kts | 80° |
| 2026-05-07 00:31 | 42.27846 | -69.50995 | 19926 ft | 493 kts | 80° |
| 2026-05-07 00:31 | 42.28545 | -69.46507 | 20375 ft | 495 kts | 80° |
| 2026-05-07 00:31 | 42.29248 | -69.41926 | 20754 ft | 497 kts | 80° |
| 2026-05-07 00:32 | 42.29947 | -69.37336 | 21145 ft | 500 kts | 80° |
| 2026-05-07 00:32 | 42.30645 | -69.32722 | 21541 ft | 503 kts | 80° |
| 2026-05-07 00:32 | 42.31345 | -69.28076 | 21937 ft | 505 kts | 80° |
| 2026-05-07 00:32 | 42.32042 | -69.23457 | 22400 ft | 507 kts | 80° |
| 2026-05-07 00:33 | 42.32747 | -69.18760 | 22807 ft | 510 kts | 80° |
| 2026-05-07 00:33 | 42.33452 | -69.14056 | 23271 ft | 511 kts | 80° |
| 2026-05-07 00:33 | 42.34159 | -69.09315 | 23643 ft | 514 kts | 80° |
| 2026-05-07 00:33 | 42.34868 | -69.04556 | 23928 ft | 518 kts | 80° |
| 2026-05-07 00:34 | 42.35581 | -68.99752 | 24235 ft | 522 kts | 80° |
| 2026-05-07 00:34 | 42.36286 | -68.94988 | 24549 ft | 525 kts | 80° |
| 2026-05-07 00:34 | 42.37006 | -68.90109 | 24865 ft | 528 kts | 80° |
| 2026-05-07 00:34 | 42.37728 | -68.85205 | 25163 ft | 532 kts | 80° |
| 2026-05-07 00:35 | 42.38450 | -68.80291 | 25539 ft | 533 kts | 80° |
| 2026-05-07 00:35 | 42.39171 | -68.75356 | 25836 ft | 537 kts | 80° |
| 2026-05-07 00:35 | 42.39889 | -68.70433 | 26154 ft | 540 kts | 80° |
| 2026-05-07 00:35 | 42.40617 | -68.65433 | 26483 ft | 543 kts | 81° |
| 2026-05-07 00:36 | 42.41347 | -68.60399 | 26785 ft | 546 kts | 81° |
| 2026-05-07 00:36 | 42.42076 | -68.55340 | 27081 ft | 549 kts | 80° |
| 2026-05-07 00:36 | 42.42811 | -68.50232 | 27341 ft | 552 kts | 80° |
| 2026-05-07 00:36 | 42.43544 | -68.45112 | 27642 ft | 554 kts | 80° |
| 2026-05-07 00:37 | 42.44278 | -68.39981 | 27913 ft | 557 kts | 80° |
| 2026-05-07 00:37 | 42.45006 | -68.34869 | 28178 ft | 560 kts | 80° |
| 2026-05-07 00:37 | 42.45745 | -68.29672 | 28463 ft | 563 kts | 80° |
| 2026-05-07 00:37 | 42.46484 | -68.24451 | 28724 ft | 565 kts | 80° |
| 2026-05-07 00:38 | 42.47226 | -68.19187 | 28972 ft | 568 kts | 80° |
| 2026-05-07 00:38 | 42.47965 | -68.13927 | 29244 ft | 569 kts | 79° |
| 2026-05-07 00:38 | 42.48697 | -68.08710 | 29679 ft | 568 kts | 80° |
| 2026-05-07 00:38 | 42.49432 | -68.03442 | 30105 ft | 566 kts | 80° |
| 2026-05-07 00:39 | 42.50164 | -67.98180 | 30381 ft | 567 kts | 80° |
| 2026-05-07 00:39 | 42.50885 | -67.92979 | 30671 ft | 567 kts | 80° |
| 2026-05-07 00:39 | 42.51613 | -67.87703 | 30956 ft | 567 kts | 80° |
| 2026-05-07 00:39 | 42.52094 | -67.84207 | 31144 ft | 566 kts | 80° |
| 2026-05-07 00:40 | 42.53050 | -67.77234 | 31519 ft | 566 kts | 80° |
| 2026-05-07 00:40 | 42.53768 | -67.71979 | 31793 ft | 566 kts | 80° |
| 2026-05-07 00:40 | 42.54244 | -67.68484 | 31973 ft | 566 kts | 80° |
| 2026-05-07 00:40 | 42.55190 | -67.61509 | 32318 ft | 566 kts | 80° |
| 2026-05-07 00:41 | 42.55669 | -67.57967 | 32490 ft | 566 kts | 80° |
| 2026-05-07 00:41 | 42.56371 | -67.52759 | 32701 ft | 565 kts | 80° |
| 2026-05-07 00:41 | 42.57074 | -67.47523 | 33124 ft | 561 kts | 80° |
| 2026-05-07 00:41 | 42.57998 | -67.40620 | 33454 ft | 561 kts | 80° |
| 2026-05-07 00:42 | 42.58469 | -67.37084 | 33578 ft | 562 kts | 80° |
| 2026-05-07 00:42 | 42.59156 | -67.31917 | 33768 ft | 562 kts | 80° |
| 2026-05-07 00:42 | 42.59849 | -67.26681 | 33985 ft | 562 kts | 80° |
| 2026-05-07 00:42 | 42.60539 | -67.21454 | 34138 ft | 562 kts | 80° |
| 2026-05-07 00:43 | 42.61226 | -67.16227 | 34434 ft | 559 kts | 80° |
| 2026-05-07 00:43 | 42.61906 | -67.11040 | 34671 ft | 558 kts | 80° |
| 2026-05-07 00:43 | 42.62584 | -67.05841 | 34794 ft | 559 kts | 80° |
| 2026-05-07 00:43 | 42.63205 | -67.00687 | 34943 ft | 559 kts | 85° |
| 2026-05-07 00:44 | 42.63975 | -66.90132 | 34982 ft | 562 kts | 86° |
| 2026-05-07 00:44 | 42.64618 | -66.79527 | 34989 ft | 561 kts | 86° |
| 2026-05-07 00:45 | 42.65228 | -66.69003 | 34997 ft | 561 kts | 86° |
| 2026-05-07 00:45 | 42.65842 | -66.58411 | 34997 ft | 561 kts | 86° |
| 2026-05-07 00:46 | 42.66450 | -66.47876 | 35005 ft | 561 kts | 86° |
| 2026-05-07 00:46 | 42.67050 | -66.37310 | 35020 ft | 560 kts | 86° |
| 2026-05-07 00:47 | 42.67640 | -66.26780 | 35023 ft | 560 kts | 86° |
| 2026-05-07 00:47 | 42.68223 | -66.16203 | 35031 ft | 559 kts | 86° |
| 2026-05-07 00:48 | 42.68794 | -66.05643 | 35024 ft | 559 kts | 86° |
| 2026-05-07 00:48 | 42.69351 | -65.95158 | 35036 ft | 558 kts | 86° |
| 2026-05-07 00:49 | 42.69902 | -65.84624 | 35044 ft | 558 kts | 86° |
| 2026-05-07 00:49 | 42.70439 | -65.74144 | 35042 ft | 558 kts | 87° |
| 2026-05-07 00:50 | 42.70972 | -65.63578 | 35034 ft | 558 kts | 86° |
| 2026-05-07 00:50 | 42.71493 | -65.53052 | 35054 ft | 555 kts | 87° |
| 2026-05-07 00:51 | 42.71999 | -65.42620 | 35052 ft | 555 kts | 87° |
| 2026-05-07 00:51 | 42.72499 | -65.32123 | 35059 ft | 555 kts | 87° |
| 2026-05-07 00:52 | 42.72986 | -65.21699 | 35056 ft | 554 kts | 87° |
| 2026-05-07 00:52 | 42.73465 | -65.11253 | 35065 ft | 550 kts | 88° |
| 2026-05-07 00:53 | 42.73929 | -65.00917 | 35071 ft | 550 kts | 88° |
| 2026-05-07 00:53 | 42.74386 | -64.90523 | 35084 ft | 550 kts | 88° |
| 2026-05-07 00:54 | 42.74834 | -64.80130 | 35069 ft | 547 kts | 88° |
| 2026-05-07 00:54 | 42.75267 | -64.69854 | 35083 ft | 545 kts | 88° |
| 2026-05-07 00:55 | 42.75693 | -64.59517 | 35087 ft | 545 kts | 88° |
| 2026-05-07 00:55 | 42.76107 | -64.49256 | 35088 ft | 545 kts | 88° |
| 2026-05-07 00:56 | 42.76515 | -64.38928 | 35089 ft | 544 kts | 89° |
| 2026-05-07 00:56 | 42.76909 | -64.28729 | 35094 ft | 542 kts | 89° |
| 2026-05-07 00:57 | 42.77295 | -64.18465 | 35094 ft | 542 kts | 89° |
| 2026-05-07 00:57 | 42.77671 | -64.08245 | 35100 ft | 542 kts | 89° |
| 2026-05-07 00:58 | 42.78039 | -63.97978 | 35103 ft | 541 kts | 89° |
| 2026-05-07 00:58 | 42.78396 | -63.87758 | 35106 ft | 541 kts | 89° |
| 2026-05-07 00:59 | 42.78917 | -63.72377 | 35106 ft | 541 kts | 89° |
| 2026-05-07 01:00 | 42.79252 | -63.62138 | 35106 ft | 541 kts | 89° |
| 2026-05-07 01:00 | 42.79576 | -63.51929 | 35118 ft | 540 kts | 89° |
| 2026-05-07 01:01 | 42.79893 | -63.41736 | 35120 ft | 540 kts | 89° |
| 2026-05-07 01:01 | 42.80199 | -63.31555 | 35123 ft | 540 kts | 89° |
| 2026-05-07 01:02 | 42.80498 | -63.21295 | 35128 ft | 540 kts | 89° |
| 2026-05-07 01:02 | 42.80785 | -63.11140 | 35134 ft | 539 kts | 89° |
| 2026-05-07 01:03 | 42.81065 | -63.00918 | 35132 ft | 539 kts | 89° |
| 2026-05-07 01:03 | 42.81336 | -62.90688 | 35137 ft | 539 kts | 89° |
| 2026-05-07 01:04 | 42.81597 | -62.80532 | 35151 ft | 539 kts | 89° |
| 2026-05-07 01:04 | 42.81849 | -62.70300 | 35144 ft | 539 kts | 89° |
| 2026-05-07 01:05 | 42.82093 | -62.60080 | 35149 ft | 539 kts | 89° |
| 2026-05-07 01:05 | 42.82326 | -62.49916 | 35149 ft | 539 kts | 89° |
| 2026-05-07 01:06 | 42.82552 | -62.39662 | 35151 ft | 539 kts | 89° |
| 2026-05-07 01:06 | 42.82767 | -62.29495 | 35159 ft | 538 kts | 89° |
| 2026-05-07 01:07 | 42.82973 | -62.19307 | 35156 ft | 537 kts | 89° |
| 2026-05-07 01:07 | 42.83170 | -62.09178 | 35180 ft | 537 kts | 89° |
| 2026-05-07 01:08 | 42.83499 | -61.99008 | 35167 ft | 537 kts | 84° |
| 2026-05-07 01:08 | 42.84332 | -61.88917 | 35168 ft | 534 kts | 82° |
| 2026-05-07 01:09 | 42.85243 | -61.78928 | 35174 ft | 533 kts | 82° |
| 2026-05-07 01:09 | 42.86157 | -61.68952 | 35173 ft | 533 kts | 82° |
| 2026-05-07 01:10 | 42.87057 | -61.58919 | 35174 ft | 533 kts | 82° |
| 2026-05-07 01:10 | 42.87943 | -61.48875 | 35180 ft | 531 kts | 82° |
| 2026-05-07 01:11 | 42.88813 | -61.38885 | 35181 ft | 528 kts | 82° |
| 2026-05-07 01:11 | 42.89668 | -61.28984 | 35181 ft | 528 kts | 82° |
| 2026-05-07 01:12 | 42.90520 | -61.19018 | 35188 ft | 528 kts | 82° |
| 2026-05-07 01:12 | 42.91364 | -61.09045 | 35186 ft | 528 kts | 82° |
| 2026-05-07 01:13 | 42.92194 | -60.99113 | 35193 ft | 527 kts | 82° |
| 2026-05-07 01:13 | 42.93014 | -60.89215 | 35193 ft | 527 kts | 82° |
| 2026-05-07 01:14 | 42.93826 | -60.79306 | 35193 ft | 527 kts | 82° |
| 2026-05-07 01:14 | 42.94633 | -60.69354 | 35200 ft | 527 kts | 82° |
| 2026-05-07 01:15 | 42.95426 | -60.59444 | 35194 ft | 525 kts | 82° |
| 2026-05-07 01:15 | 42.96211 | -60.49534 | 35207 ft | 523 kts | 82° |
| 2026-05-07 01:16 | 42.96989 | -60.39626 | 35217 ft | 523 kts | 82° |
| 2026-05-07 01:16 | 42.97751 | -60.29789 | 35209 ft | 523 kts | 82° |
| 2026-05-07 01:17 | 42.98506 | -60.19949 | 35209 ft | 523 kts | 82° |
| 2026-05-07 01:17 | 42.99253 | -60.10078 | 35212 ft | 520 kts | 82° |
| 2026-05-07 01:18 | 42.99988 | -60.00251 | 35210 ft | 519 kts | 82° |
| 2026-05-07 01:18 | 43.00549 | -59.90464 | 35214 ft | 520 kts | 85° |
| 2026-05-07 01:19 | 43.00896 | -59.80577 | 35231 ft | 520 kts | 85° |
| 2026-05-07 01:19 | 43.01246 | -59.70705 | 35220 ft | 519 kts | 85° |
| 2026-05-07 01:20 | 43.01623 | -59.60914 | 35223 ft | 518 kts | 85° |
| 2026-05-07 01:20 | 43.02013 | -59.51039 | 35224 ft | 518 kts | 85° |
| 2026-05-07 01:21 | 43.02393 | -59.41226 | 35231 ft | 518 kts | 85° |
| 2026-05-07 01:21 | 43.02764 | -59.31410 | 35230 ft | 519 kts | 85° |
| 2026-05-07 01:22 | 43.03125 | -59.21573 | 35237 ft | 515 kts | 85° |
| 2026-05-07 01:22 | 43.03474 | -59.11839 | 35242 ft | 513 kts | 85° |
| 2026-05-07 01:23 | 43.03816 | -59.02085 | 35243 ft | 513 kts | 85° |
| 2026-05-07 01:23 | 43.04149 | -58.92368 | 35243 ft | 513 kts | 85° |
| 2026-05-07 01:24 | 43.04474 | -58.82607 | 35246 ft | 511 kts | 85° |
| 2026-05-07 01:24 | 43.04787 | -58.72964 | 35249 ft | 509 kts | 85° |
| 2026-05-07 01:25 | 43.05094 | -58.63266 | 35251 ft | 509 kts | 85° |
| 2026-05-07 01:25 | 43.05392 | -58.53611 | 35257 ft | 509 kts | 86° |
| 2026-05-07 01:26 | 43.05683 | -58.43906 | 35253 ft | 509 kts | 86° |
| 2026-05-07 01:26 | 43.05963 | -58.34302 | 35257 ft | 508 kts | 86° |
| 2026-05-07 01:27 | 43.06236 | -58.24630 | 35260 ft | 508 kts | 86° |
| 2026-05-07 01:27 | 43.06500 | -58.15014 | 35263 ft | 508 kts | 86° |
| 2026-05-07 01:28 | 43.06715 | -58.06960 | 35264 ft | 508 kts | 86° |
| 2026-05-07 01:28 | 43.07006 | -57.95728 | 35266 ft | 508 kts | 87° |
| 2026-05-07 01:29 | 43.07302 | -57.87685 | 35273 ft | 508 kts | 82° |
| 2026-05-07 01:29 | 43.08532 | -57.78169 | 35273 ft | 508 kts | 77° |
| 2026-05-07 01:30 | 43.09972 | -57.68687 | 35277 ft | 507 kts | 77° |
| 2026-05-07 01:30 | 43.11427 | -57.59304 | 35279 ft | 507 kts | 77° |
| 2026-05-07 01:31 | 43.12878 | -57.49808 | 35280 ft | 508 kts | 77° |
| 2026-05-07 01:31 | 43.14305 | -57.40348 | 35282 ft | 510 kts | 78° |
| 2026-05-07 01:32 | 43.15731 | -57.30805 | 35288 ft | 510 kts | 78° |
| 2026-05-07 01:32 | 43.17139 | -57.21327 | 35287 ft | 510 kts | 78° |
| 2026-05-07 01:33 | 43.18551 | -57.11776 | 35288 ft | 510 kts | 78° |
| 2026-05-07 01:33 | 43.19951 | -57.02244 | 35294 ft | 510 kts | 78° |
| 2026-05-07 01:34 | 43.21340 | -56.92728 | 35291 ft | 513 kts | 78° |
| 2026-05-07 01:34 | 43.22738 | -56.83091 | 35302 ft | 514 kts | 78° |
| 2026-05-07 01:35 | 43.24123 | -56.73486 | 35301 ft | 514 kts | 78° |
| 2026-05-07 01:35 | 43.25499 | -56.63884 | 35308 ft | 514 kts | 78° |
| 2026-05-07 01:36 | 43.26871 | -56.54247 | 35309 ft | 514 kts | 79° |
| 2026-05-07 01:36 | 43.28237 | -56.44591 | 35306 ft | 514 kts | 79° |
| 2026-05-07 01:37 | 43.29598 | -56.34909 | 35312 ft | 522 kts | 79° |
| 2026-05-07 01:37 | 43.30971 | -56.25071 | 35319 ft | 523 kts | 79° |
| 2026-05-07 01:38 | 43.32326 | -56.15310 | 35319 ft | 522 kts | 79° |
| 2026-05-07 01:38 | 43.33678 | -56.05500 | 35325 ft | 521 kts | 79° |
| 2026-05-07 01:39 | 43.35013 | -55.95749 | 35326 ft | 521 kts | 79° |
| 2026-05-07 01:39 | 43.36349 | -55.85924 | 35329 ft | 525 kts | 80° |
| 2026-05-07 01:40 | 43.37685 | -55.76035 | 35334 ft | 528 kts | 80° |
| 2026-05-07 01:40 | 43.39020 | -55.66083 | 35335 ft | 528 kts | 80° |
| 2026-05-07 01:41 | 43.40339 | -55.56179 | 35338 ft | 528 kts | 80° |
| 2026-05-07 01:41 | 43.41650 | -55.46272 | 35338 ft | 528 kts | 80° |
| 2026-05-07 01:42 | 43.42958 | -55.36317 | 35334 ft | 528 kts | 80° |
| 2026-05-07 01:42 | 43.44268 | -55.26277 | 35340 ft | 533 kts | 81° |
| 2026-05-07 01:43 | 43.45563 | -55.16272 | 35346 ft | 533 kts | 80° |
| 2026-05-07 01:43 | 43.46858 | -55.06205 | 35345 ft | 532 kts | 80° |
| 2026-05-07 01:44 | 43.48134 | -54.96212 | 35349 ft | 532 kts | 81° |
| 2026-05-07 01:44 | 43.49409 | -54.86157 | 35350 ft | 532 kts | 81° |
| 2026-05-07 01:45 | 43.50667 | -54.76161 | 35349 ft | 532 kts | 81° |
| 2026-05-07 01:45 | 43.51925 | -54.66083 | 35353 ft | 532 kts | 81° |
| 2026-05-07 01:46 | 43.53164 | -54.56092 | 35352 ft | 532 kts | 81° |
| 2026-05-07 01:46 | 43.54403 | -54.46018 | 35357 ft | 531 kts | 81° |
| 2026-05-07 01:47 | 43.55628 | -54.35986 | 35362 ft | 531 kts | 81° |
| 2026-05-07 01:47 | 43.56844 | -54.25956 | 35371 ft | 534 kts | 81° |
| 2026-05-07 01:48 | 43.58068 | -54.15780 | 35364 ft | 537 kts | 81° |
| 2026-05-07 01:48 | 43.59278 | -54.05638 | 35368 ft | 537 kts | 81° |
| 2026-05-07 01:49 | 43.60479 | -53.95498 | 35367 ft | 537 kts | 81° |
| 2026-05-07 01:49 | 43.61677 | -53.85298 | 35375 ft | 537 kts | 81° |
| 2026-05-07 01:50 | 43.62857 | -53.75167 | 35370 ft | 536 kts | 81° |
| 2026-05-07 01:50 | 43.64039 | -53.64944 | 35378 ft | 540 kts | 81° |
| 2026-05-07 01:51 | 43.65209 | -53.54739 | 35377 ft | 540 kts | 81° |
| 2026-05-07 01:51 | 43.66378 | -53.44464 | 35381 ft | 540 kts | 81° |
| 2026-05-07 01:52 | 43.67531 | -53.34246 | 35381 ft | 540 kts | 81° |
| 2026-05-07 01:52 | 43.68680 | -53.23963 | 35384 ft | 539 kts | 81° |
| 2026-05-07 01:53 | 43.69815 | -53.13730 | 35389 ft | 544 kts | 82° |
| 2026-05-07 01:53 | 43.70956 | -53.03360 | 35389 ft | 546 kts | 82° |
| 2026-05-07 01:54 | 43.72089 | -52.92971 | 35391 ft | 545 kts | 82° |
| 2026-05-07 01:54 | 43.73205 | -52.82639 | 35393 ft | 545 kts | 82° |
| 2026-05-07 01:55 | 43.74318 | -52.72258 | 35392 ft | 544 kts | 82° |
| 2026-05-07 01:55 | 43.75412 | -52.61955 | 35393 ft | 546 kts | 82° |
| 2026-05-07 01:56 | 43.76516 | -52.51471 | 35397 ft | 549 kts | 82° |
| 2026-05-07 01:56 | 43.77603 | -52.41051 | 35398 ft | 549 kts | 82° |
| 2026-05-07 01:57 | 43.78684 | -52.30586 | 35400 ft | 547 kts | 82° |
| 2026-05-07 01:57 | 43.79747 | -52.20211 | 35400 ft | 546 kts | 82° |
| 2026-05-07 01:58 | 43.80802 | -52.09813 | 35399 ft | 547 kts | 82° |
| 2026-05-07 01:58 | 43.81858 | -51.99313 | 35405 ft | 551 kts | 82° |
| 2026-05-07 01:59 | 43.82902 | -51.88824 | 35416 ft | 551 kts | 82° |
| 2026-05-07 01:59 | 43.83941 | -51.78294 | 35411 ft | 548 kts | 82° |
| 2026-05-07 02:00 | 43.84959 | -51.67870 | 35415 ft | 548 kts | 82° |
| 2026-05-07 02:00 | 43.85970 | -51.57414 | 35402 ft | 548 kts | 82° |
| 2026-05-07 02:01 | 43.86979 | -51.46879 | 35415 ft | 553 kts | 82° |
| 2026-05-07 02:01 | 43.87976 | -51.36368 | 35417 ft | 552 kts | 82° |
| 2026-05-07 02:02 | 43.88969 | -51.25800 | 35417 ft | 551 kts | 82° |
| 2026-05-07 02:02 | 43.89950 | -51.15243 | 35418 ft | 551 kts | 82° |
| 2026-05-07 02:03 | 43.90916 | -51.04737 | 35419 ft | 551 kts | 83° |
| 2026-05-07 02:03 | 43.91880 | -50.94147 | 35425 ft | 553 kts | 82° |
| 2026-05-07 02:04 | 43.92837 | -50.83523 | 35427 ft | 554 kts | 83° |
| 2026-05-07 02:04 | 43.93780 | -50.72948 | 35427 ft | 554 kts | 83° |
| 2026-05-07 02:05 | 43.94718 | -50.62304 | 35425 ft | 554 kts | 83° |
| 2026-05-07 02:05 | 43.95640 | -50.51737 | 35427 ft | 554 kts | 83° |
| 2026-05-07 02:06 | 43.96557 | -50.41107 | 35429 ft | 554 kts | 83° |
| 2026-05-07 02:06 | 43.97461 | -50.30511 | 35427 ft | 556 kts | 83° |
| 2026-05-07 02:07 | 43.98365 | -50.19799 | 35430 ft | 556 kts | 83° |
| 2026-05-07 02:07 | 43.99692 | -50.03846 | 35438 ft | 556 kts | 83° |
| 2026-05-07 02:08 | 44.00474 | -49.93123 | 35436 ft | 554 kts | 86° |
| 2026-05-07 02:08 | 44.00879 | -49.82496 | 35439 ft | 555 kts | 87° |
| 2026-05-07 02:09 | 44.01239 | -49.71731 | 35439 ft | 556 kts | 87° |
| 2026-05-07 02:09 | 44.01640 | -49.61045 | 35441 ft | 556 kts | 86° |
| 2026-05-07 02:10 | 44.02066 | -49.50267 | 35444 ft | 556 kts | 86° |
| 2026-05-07 02:10 | 44.02485 | -49.39591 | 35442 ft | 553 kts | 86° |
| 2026-05-07 02:11 | 44.02893 | -49.28920 | 35447 ft | 551 kts | 86° |
| 2026-05-07 02:11 | 44.03287 | -49.18300 | 35446 ft | 551 kts | 87° |
| 2026-05-07 02:12 | 44.03669 | -49.07705 | 35446 ft | 551 kts | 87° |
| 2026-05-07 02:12 | 44.04042 | -48.97079 | 35452 ft | 551 kts | 87° |
| 2026-05-07 02:13 | 44.04406 | -48.86439 | 35445 ft | 548 kts | 87° |
| 2026-05-07 02:13 | 44.04759 | -48.75824 | 35449 ft | 550 kts | 87° |
| 2026-05-07 02:14 | 44.05103 | -48.65215 | 35450 ft | 551 kts | 87° |
| 2026-05-07 02:14 | 44.05436 | -48.54634 | 35452 ft | 551 kts | 87° |
| 2026-05-07 02:15 | 44.05760 | -48.43989 | 35472 ft | 551 kts | 87° |
| 2026-05-07 02:15 | 44.06074 | -48.33373 | 35444 ft | 547 kts | 87° |
| 2026-05-07 02:16 | 44.06378 | -48.22750 | 35454 ft | 550 kts | 87° |
| 2026-05-07 02:16 | 44.06672 | -48.12154 | 35451 ft | 551 kts | 87° |
| 2026-05-07 02:17 | 44.06910 | -48.03292 | 35460 ft | 551 kts | 87° |
| 2026-05-07 02:17 | 44.07232 | -47.90891 | 35470 ft | 551 kts | 87° |
| 2026-05-07 02:18 | 44.07453 | -47.82052 | 35447 ft | 547 kts | 87° |
| 2026-05-07 02:18 | 44.07708 | -47.71485 | 35458 ft | 550 kts | 87° |
| 2026-05-07 02:19 | 44.07957 | -47.60784 | 35461 ft | 550 kts | 88° |
| 2026-05-07 02:19 | 44.08193 | -47.50187 | 35461 ft | 550 kts | 88° |
| 2026-05-07 02:20 | 44.08422 | -47.39505 | 35482 ft | 550 kts | 88° |
| 2026-05-07 02:20 | 44.08637 | -47.28931 | 35455 ft | 547 kts | 88° |
| 2026-05-07 02:21 | 44.08845 | -47.18302 | 35458 ft | 549 kts | 88° |
| 2026-05-07 02:21 | 44.09042 | -47.07727 | 35459 ft | 550 kts | 88° |
| 2026-05-07 02:22 | 44.09230 | -46.97076 | 35465 ft | 550 kts | 88° |
| 2026-05-07 02:22 | 44.09408 | -46.86442 | 35476 ft | 549 kts | 88° |
| 2026-05-07 02:23 | 44.09574 | -46.75889 | 35455 ft | 546 kts | 88° |
| 2026-05-07 02:23 | 44.09732 | -46.65276 | 35464 ft | 548 kts | 88° |
| 2026-05-07 02:24 | 44.09880 | -46.54712 | 35462 ft | 549 kts | 88° |
| 2026-05-07 02:24 | 44.10019 | -46.44068 | 35461 ft | 549 kts | 88° |
| 2026-05-07 02:25 | 44.10147 | -46.33440 | 35475 ft | 548 kts | 88° |
| 2026-05-07 02:25 | 44.10265 | -46.22889 | 35461 ft | 546 kts | 88° |
| 2026-05-07 02:26 | 44.10373 | -46.12343 | 35458 ft | 547 kts | 88° |
| 2026-05-07 02:26 | 44.10473 | -46.01723 | 35457 ft | 547 kts | 88° |
| 2026-05-07 02:27 | 44.10561 | -45.91171 | 35459 ft | 547 kts | 88° |
| 2026-05-07 02:27 | 44.10641 | -45.80564 | 35459 ft | 547 kts | 88° |
| 2026-05-07 02:28 | 44.10710 | -45.69954 | 35455 ft | 548 kts | 88° |
| 2026-05-07 02:28 | 44.10771 | -45.59353 | 35460 ft | 551 kts | 88° |
| 2026-05-07 02:29 | 44.10821 | -45.48674 | 35452 ft | 552 kts | 89° |
| 2026-05-07 02:29 | 44.10861 | -45.38018 | 35451 ft | 552 kts | 89° |
| 2026-05-07 02:30 | 44.10891 | -45.27315 | 35457 ft | 550 kts | 89° |
| 2026-05-07 02:30 | 44.10911 | -45.16683 | 35455 ft | 547 kts | 89° |
| 2026-05-07 02:31 | 44.10922 | -45.06124 | 35451 ft | 548 kts | 89° |
| 2026-05-07 02:31 | 44.10923 | -44.95566 | 35451 ft | 548 kts | 89° |
| 2026-05-07 02:32 | 44.10914 | -44.84949 | 35451 ft | 548 kts | 89° |
| 2026-05-07 02:32 | 44.10895 | -44.74336 | 35456 ft | 547 kts | 89° |
| 2026-05-07 02:33 | 44.10866 | -44.63811 | 35449 ft | 544 kts | 89° |
| 2026-05-07 02:33 | 44.10828 | -44.53285 | 35450 ft | 545 kts | 89° |
| 2026-05-07 02:34 | 44.10780 | -44.42713 | 35446 ft | 545 kts | 89° |
| 2026-05-07 02:34 | 44.10723 | -44.32229 | 35447 ft | 545 kts | 89° |
| 2026-05-07 02:35 | 44.10656 | -44.21674 | 35441 ft | 543 kts | 89° |
| 2026-05-07 02:35 | 44.10579 | -44.11200 | 35442 ft | 539 kts | 89° |
| 2026-05-07 02:36 | 44.10493 | -44.00802 | 35442 ft | 539 kts | 89° |
| 2026-05-07 02:36 | 44.10398 | -43.90351 | 35440 ft | 539 kts | 89° |
| 2026-05-07 02:37 | 44.10294 | -43.79964 | 35428 ft | 539 kts | 89° |
| 2026-05-07 02:37 | 44.10180 | -43.69491 | 35437 ft | 538 kts | 89° |
| 2026-05-07 02:38 | 44.10057 | -43.59151 | 35428 ft | 535 kts | 89° |
| 2026-05-07 02:38 | 44.09925 | -43.48833 | 35425 ft | 535 kts | 89° |
| 2026-05-07 02:39 | 44.09784 | -43.38453 | 35423 ft | 535 kts | 90° |
| 2026-05-07 02:39 | 44.09634 | -43.28150 | 35426 ft | 535 kts | 90° |
| 2026-05-07 02:40 | 44.09474 | -43.17790 | 35435 ft | 534 kts | 90° |
| 2026-05-07 02:40 | 44.09306 | -43.07536 | 35422 ft | 531 kts | 90° |
| 2026-05-07 02:41 | 44.09129 | -42.97242 | 35420 ft | 531 kts | 90° |
| 2026-05-07 02:41 | 44.08944 | -42.87011 | 35420 ft | 531 kts | 90° |
| 2026-05-07 02:42 | 44.08747 | -42.76703 | 35411 ft | 531 kts | 90° |
| 2026-05-07 02:42 | 44.08543 | -42.66467 | 35420 ft | 531 kts | 90° |
| 2026-05-07 02:43 | 44.08330 | -42.56253 | 35405 ft | 529 kts | 90° |
| 2026-05-07 02:43 | 44.08107 | -42.45990 | 35405 ft | 530 kts | 90° |
| 2026-05-07 02:44 | 44.07876 | -42.35750 | 35404 ft | 530 kts | 90° |
| 2026-05-07 02:44 | 44.07637 | -42.25559 | 35402 ft | 530 kts | 90° |
| 2026-05-07 02:45 | 44.07386 | -42.15273 | 35415 ft | 530 kts | 90° |
| 2026-05-07 02:45 | 44.07127 | -42.05090 | 35396 ft | 527 kts | 90° |
| 2026-05-07 02:46 | 44.06862 | -41.94945 | 35391 ft | 528 kts | 90° |
| 2026-05-07 02:46 | 44.06585 | -41.84711 | 35391 ft | 528 kts | 90° |
| 2026-05-07 02:47 | 44.06301 | -41.74542 | 35388 ft | 528 kts | 90° |
| 2026-05-07 02:47 | 44.06005 | -41.64312 | 35409 ft | 528 kts | 90° |
| 2026-05-07 02:48 | 44.05703 | -41.54167 | 35382 ft | 527 kts | 90° |
| 2026-05-07 02:48 | 44.05390 | -41.43954 | 35381 ft | 528 kts | 90° |
| 2026-05-07 02:49 | 44.05070 | -41.33784 | 35380 ft | 528 kts | 90° |
| 2026-05-07 02:49 | 44.04738 | -41.23546 | 35374 ft | 528 kts | 90° |
| 2026-05-07 02:50 | 44.04399 | -41.13395 | 35373 ft | 528 kts | 90° |
| 2026-05-07 02:50 | 44.04049 | -41.03173 | 35366 ft | 528 kts | 90° |
| 2026-05-07 02:51 | 44.03692 | -40.93015 | 35362 ft | 528 kts | 90° |
| 2026-05-07 02:51 | 44.03325 | -40.82791 | 35361 ft | 528 kts | 90° |
| 2026-05-07 02:52 | 44.02950 | -40.72624 | 35361 ft | 529 kts | 90° |
| 2026-05-07 02:52 | 44.02563 | -40.62408 | 35357 ft | 529 kts | 90° |
| 2026-05-07 02:53 | 44.02170 | -40.52253 | 35355 ft | 529 kts | 90° |
| 2026-05-07 02:53 | 44.01765 | -40.42020 | 35346 ft | 529 kts | 90° |
| 2026-05-07 02:54 | 44.01354 | -40.31852 | 35346 ft | 529 kts | 90° |
| 2026-05-07 02:54 | 44.00931 | -40.21627 | 35347 ft | 529 kts | 91° |
| 2026-05-07 02:55 | 44.00499 | -40.11407 | 35346 ft | 530 kts | 91° |
| 2026-05-07 02:55 | 44.00103 | -40.01234 | 35339 ft | 529 kts | 86° |
| 2026-05-07 02:56 | 44.00375 | -39.91033 | 35340 ft | 527 kts | 83° |
| 2026-05-07 02:56 | 44.00800 | -39.80829 | 35336 ft | 527 kts | 83° |
| 2026-05-07 02:57 | 44.01240 | -39.70693 | 35327 ft | 527 kts | 83° |
| 2026-05-07 02:57 | 44.01663 | -39.60568 | 35354 ft | 528 kts | 82° |
| 2026-05-07 02:58 | 44.02071 | -39.50360 | 35324 ft | 528 kts | 82° |
| 2026-05-07 02:58 | 44.02468 | -39.40151 | 35325 ft | 528 kts | 83° |
| 2026-05-07 02:59 | 44.02854 | -39.29983 | 35317 ft | 528 kts | 82° |
| 2026-05-07 02:59 | 44.03231 | -39.19815 | 35317 ft | 528 kts | 82° |
| 2026-05-07 03:00 | 44.03600 | -39.09630 | 35315 ft | 528 kts | 82° |
| 2026-05-07 03:00 | 44.03961 | -38.99412 | 35314 ft | 528 kts | 82° |
| 2026-05-07 03:01 | 44.04312 | -38.89236 | 35303 ft | 528 kts | 82° |
| 2026-05-07 03:01 | 44.04654 | -38.79022 | 35298 ft | 528 kts | 82° |
| 2026-05-07 03:02 | 44.04987 | -38.68829 | 35307 ft | 528 kts | 82° |
| 2026-05-07 03:02 | 44.05310 | -38.58671 | 35292 ft | 528 kts | 82° |
| 2026-05-07 03:03 | 44.05626 | -38.48439 | 35290 ft | 528 kts | 82° |
| 2026-05-07 03:03 | 44.05930 | -38.38287 | 35287 ft | 528 kts | 82° |
| 2026-05-07 03:04 | 44.06227 | -38.28061 | 35287 ft | 528 kts | 82° |
| 2026-05-07 03:04 | 44.06513 | -38.17888 | 35271 ft | 527 kts | 82° |
| 2026-05-07 03:05 | 44.06791 | -38.07691 | 35282 ft | 527 kts | 82° |
| 2026-05-07 03:05 | 44.07061 | -37.97493 | 35267 ft | 527 kts | 82° |
| 2026-05-07 03:06 | 44.07320 | -37.87353 | 35262 ft | 527 kts | 82° |
| 2026-05-07 03:06 | 44.07571 | -37.77140 | 35280 ft | 527 kts | 81° |
| 2026-05-07 03:07 | 44.07772 | -37.68673 | 35258 ft | 526 kts | 82° |
| 2026-05-07 03:07 | 44.08007 | -37.58485 | 35256 ft | 526 kts | 82° |
| 2026-05-07 03:08 | 44.08269 | -37.46643 | 35256 ft | 526 kts | 82° |
| 2026-05-07 03:08 | 44.08448 | -37.38158 | 35257 ft | 527 kts | 82° |
| 2026-05-07 03:09 | 44.08656 | -37.27957 | 35245 ft | 527 kts | 82° |
| 2026-05-07 03:09 | 44.08854 | -37.17744 | 35237 ft | 527 kts | 82° |
| 2026-05-07 03:10 | 44.09043 | -37.07591 | 35239 ft | 527 kts | 82° |
| 2026-05-07 03:10 | 44.09223 | -36.97414 | 35227 ft | 528 kts | 82° |
| 2026-05-07 03:11 | 44.09394 | -36.87183 | 35235 ft | 528 kts | 82° |
| 2026-05-07 03:11 | 44.09557 | -36.76956 | 35236 ft | 528 kts | 82° |
| 2026-05-07 03:12 | 44.09710 | -36.66773 | 35222 ft | 529 kts | 82° |
| 2026-05-07 03:12 | 44.09855 | -36.56504 | 35217 ft | 529 kts | 82° |
| 2026-05-07 03:13 | 44.09989 | -36.46299 | 35248 ft | 529 kts | 82° |
| 2026-05-07 03:13 | 44.10115 | -36.36033 | 35210 ft | 531 kts | 82° |
| 2026-05-07 03:14 | 44.10233 | -36.25778 | 35206 ft | 531 kts | 82° |
| 2026-05-07 03:15 | 44.10391 | -36.10365 | 35204 ft | 532 kts | 82° |
| 2026-05-07 03:15 | 44.10485 | -36.00066 | 35200 ft | 532 kts | 82° |
| 2026-05-07 03:16 | 44.10571 | -35.89761 | 35199 ft | 532 kts | 82° |
| 2026-05-07 03:16 | 44.10647 | -35.79467 | 35198 ft | 533 kts | 82° |
| 2026-05-07 03:17 | 44.10713 | -35.69200 | 35200 ft | 533 kts | 82° |
| 2026-05-07 03:17 | 44.10771 | -35.58861 | 35201 ft | 533 kts | 82° |
| 2026-05-07 03:18 | 44.10819 | -35.48523 | 35208 ft | 534 kts | 82° |
| 2026-05-07 03:18 | 44.10859 | -35.38236 | 35191 ft | 534 kts | 82° |
| 2026-05-07 03:19 | 44.10888 | -35.27866 | 35190 ft | 535 kts | 82° |
| 2026-05-07 03:19 | 44.10908 | -35.17554 | 35184 ft | 535 kts | 82° |
| 2026-05-07 03:20 | 44.10919 | -35.07183 | 35195 ft | 535 kts | 82° |
| 2026-05-07 03:20 | 44.10921 | -34.96865 | 35181 ft | 536 kts | 82° |
| 2026-05-07 03:21 | 44.10914 | -34.86469 | 35176 ft | 536 kts | 82° |
| 2026-05-07 03:21 | 44.10897 | -34.76110 | 35176 ft | 536 kts | 82° |
| 2026-05-07 03:22 | 44.10871 | -34.65784 | 35218 ft | 537 kts | 82° |
| 2026-05-07 03:22 | 44.10835 | -34.55393 | 35178 ft | 537 kts | 82° |
| 2026-05-07 03:23 | 44.10790 | -34.44969 | 35156 ft | 537 kts | 82° |
| 2026-05-07 03:23 | 44.10735 | -34.34604 | 35169 ft | 537 kts | 82° |
| 2026-05-07 03:24 | 44.10671 | -34.24189 | 35166 ft | 537 kts | 82° |
| 2026-05-07 03:24 | 44.10597 | -34.13833 | 35161 ft | 538 kts | 82° |
| 2026-05-07 03:25 | 44.10515 | -34.03464 | 35153 ft | 538 kts | 83° |
| 2026-05-07 03:25 | 44.10422 | -33.92993 | 35148 ft | 539 kts | 83° |
| 2026-05-07 03:26 | 44.10320 | -33.82602 | 35149 ft | 539 kts | 83° |
| 2026-05-07 03:26 | 44.10208 | -33.72143 | 35155 ft | 539 kts | 83° |
| 2026-05-07 03:27 | 44.10087 | -33.61734 | 35139 ft | 540 kts | 83° |
| 2026-05-07 03:27 | 44.09957 | -33.51321 | 35135 ft | 540 kts | 83° |
| 2026-05-07 03:28 | 44.09816 | -33.40845 | 35133 ft | 540 kts | 83° |
| 2026-05-07 03:28 | 44.09666 | -33.30369 | 35143 ft | 541 kts | 83° |
| 2026-05-07 03:29 | 44.09507 | -33.19952 | 35123 ft | 542 kts | 83° |
| 2026-05-07 03:29 | 44.09337 | -33.09423 | 35119 ft | 543 kts | 83° |
| 2026-05-07 03:30 | 44.09158 | -32.98976 | 35117 ft | 543 kts | 83° |
| 2026-05-07 03:30 | 44.08969 | -32.88501 | 35124 ft | 543 kts | 83° |
| 2026-05-07 03:31 | 44.08770 | -32.77966 | 35119 ft | 544 kts | 83° |
| 2026-05-07 03:31 | 44.08563 | -32.67479 | 35108 ft | 545 kts | 83° |
| 2026-05-07 03:32 | 44.08343 | -32.56922 | 35105 ft | 545 kts | 83° |
| 2026-05-07 03:32 | 44.08115 | -32.46411 | 35094 ft | 545 kts | 83° |
| 2026-05-07 03:33 | 44.07876 | -32.35842 | 35100 ft | 545 kts | 84° |
| 2026-05-07 03:33 | 44.07629 | -32.25331 | 35088 ft | 546 kts | 84° |
| 2026-05-07 03:34 | 44.07371 | -32.14756 | 35089 ft | 546 kts | 84° |
| 2026-05-07 03:34 | 44.07105 | -32.04249 | 35081 ft | 546 kts | 84° |
| 2026-05-07 03:35 | 44.06827 | -31.93675 | 35118 ft | 546 kts | 85° |
| 2026-05-07 03:35 | 44.06539 | -31.83123 | 35072 ft | 544 kts | 85° |
| 2026-05-07 03:36 | 44.06244 | -31.72660 | 35068 ft | 544 kts | 85° |
| 2026-05-07 03:36 | 44.05938 | -31.62132 | 35066 ft | 544 kts | 85° |
| 2026-05-07 03:37 | 44.05625 | -31.51667 | 35055 ft | 544 kts | 85° |
| 2026-05-07 03:37 | 44.05300 | -31.41126 | 35056 ft | 544 kts | 85° |
| 2026-05-07 03:38 | 44.04967 | -31.30642 | 35051 ft | 544 kts | 85° |
| 2026-05-07 03:38 | 44.04622 | -31.20126 | 35051 ft | 544 kts | 85° |
| 2026-05-07 03:39 | 44.04269 | -31.09628 | 35045 ft | 544 kts | 86° |
| 2026-05-07 03:39 | 44.03908 | -30.99161 | 35031 ft | 542 kts | 86° |
| 2026-05-07 03:40 | 44.03536 | -30.88710 | 35043 ft | 540 kts | 87° |
| 2026-05-07 03:40 | 44.03156 | -30.78282 | 35030 ft | 539 kts | 87° |
| 2026-05-07 03:41 | 44.02769 | -30.67867 | 35026 ft | 539 kts | 87° |
| 2026-05-07 03:41 | 44.02372 | -30.57472 | 35047 ft | 540 kts | 88° |
| 2026-05-07 03:42 | 44.01965 | -30.47121 | 35018 ft | 536 kts | 88° |
| 2026-05-07 03:42 | 44.01552 | -30.36796 | 35016 ft | 535 kts | 88° |
| 2026-05-07 03:43 | 44.01130 | -30.26456 | 35007 ft | 536 kts | 88° |
| 2026-05-07 03:43 | 44.00700 | -30.16172 | 35006 ft | 536 kts | 88° |
| 2026-05-07 03:44 | 44.00261 | -30.05888 | 35000 ft | 533 kts | 89° |
| 2026-05-07 03:44 | 43.99848 | -29.95619 | 34989 ft | 531 kts | 87° |
| 2026-05-07 03:45 | 43.99774 | -29.85365 | 34992 ft | 529 kts | 85° |
| 2026-05-07 03:45 | 43.99783 | -29.75185 | 34989 ft | 529 kts | 85° |
| 2026-05-07 03:46 | 43.99738 | -29.64932 | 34983 ft | 528 kts | 86° |
| 2026-05-07 03:46 | 43.99646 | -29.54783 | 34988 ft | 528 kts | 87° |
| 2026-05-07 03:47 | 43.99536 | -29.44621 | 34980 ft | 528 kts | 87° |
| 2026-05-07 03:47 | 43.99417 | -29.34402 | 34980 ft | 528 kts | 87° |
| 2026-05-07 03:48 | 43.99291 | -29.24189 | 34978 ft | 527 kts | 88° |
| 2026-05-07 03:48 | 43.99158 | -29.14091 | 34972 ft | 525 kts | 88° |
| 2026-05-07 03:49 | 43.99015 | -29.03915 | 34968 ft | 525 kts | 88° |
| 2026-05-07 03:49 | 43.98864 | -28.93808 | 34959 ft | 525 kts | 88° |
| 2026-05-07 03:50 | 43.98704 | -28.83632 | 34972 ft | 525 kts | 89° |
| 2026-05-07 03:50 | 43.98536 | -28.73565 | 34958 ft | 523 kts | 89° |
| 2026-05-07 03:51 | 43.98357 | -28.63440 | 34952 ft | 523 kts | 89° |
| 2026-05-07 03:51 | 43.98171 | -28.53384 | 34947 ft | 523 kts | 89° |
| 2026-05-07 03:52 | 43.97976 | -28.43274 | 34955 ft | 523 kts | 89° |
| 2026-05-07 03:52 | 43.97772 | -28.33181 | 34946 ft | 521 kts | 90° |
| 2026-05-07 03:53 | 43.97560 | -28.23189 | 34936 ft | 520 kts | 90° |
| 2026-05-07 03:53 | 43.97339 | -28.13117 | 34936 ft | 520 kts | 90° |
| 2026-05-07 03:54 | 43.97111 | -28.03141 | 34940 ft | 520 kts | 90° |
| 2026-05-07 03:54 | 43.96873 | -27.93097 | 34938 ft | 519 kts | 91° |
| 2026-05-07 03:55 | 43.96626 | -27.83072 | 34921 ft | 518 kts | 91° |
| 2026-05-07 03:55 | 43.96372 | -27.73148 | 34925 ft | 518 kts | 91° |
| 2026-05-07 03:56 | 43.96108 | -27.63109 | 34924 ft | 518 kts | 91° |
| 2026-05-07 03:56 | 43.95838 | -27.53165 | 34920 ft | 518 kts | 91° |
| 2026-05-07 03:57 | 43.95557 | -27.43157 | 34918 ft | 517 kts | 91° |
| 2026-05-07 03:57 | 43.95268 | -27.33194 | 34912 ft | 517 kts | 91° |
| 2026-05-07 03:58 | 43.94969 | -27.23188 | 34912 ft | 518 kts | 92° |
| 2026-05-07 03:58 | 43.94715 | -27.14922 | 34903 ft | 518 kts | 92° |
| 2026-05-07 03:59 | 43.94348 | -27.03298 | 34910 ft | 518 kts | 92° |
| 2026-05-07 03:59 | 43.94079 | -26.94980 | 34900 ft | 517 kts | 92° |
| 2026-05-07 04:00 | 43.93746 | -26.84959 | 34902 ft | 517 kts | 92° |
| 2026-05-07 04:00 | 43.93408 | -26.75034 | 34900 ft | 517 kts | 92° |
| 2026-05-07 04:01 | 43.93060 | -26.65049 | 34904 ft | 517 kts | 93° |
| 2026-05-07 04:01 | 43.92705 | -26.55137 | 34899 ft | 516 kts | 93° |
| 2026-05-07 04:02 | 43.92339 | -26.45191 | 34897 ft | 516 kts | 93° |
| 2026-05-07 04:02 | 43.91967 | -26.35288 | 34897 ft | 516 kts | 93° |
| 2026-05-07 04:03 | 43.91585 | -26.25334 | 34894 ft | 515 kts | 94° |
| 2026-05-07 04:03 | 43.91197 | -26.15454 | 34895 ft | 513 kts | 94° |
| 2026-05-07 04:04 | 43.90799 | -26.05554 | 34886 ft | 513 kts | 94° |
| 2026-05-07 04:04 | 43.90395 | -25.95698 | 34886 ft | 512 kts | 94° |
| 2026-05-07 04:05 | 43.89981 | -25.85811 | 34883 ft | 512 kts | 95° |
| 2026-05-07 04:05 | 43.89564 | -25.76032 | 34881 ft | 507 kts | 95° |
| 2026-05-07 04:06 | 43.89137 | -25.66260 | 34879 ft | 506 kts | 95° |
| 2026-05-07 04:06 | 43.88704 | -25.56552 | 34881 ft | 506 kts | 95° |
| 2026-05-07 04:07 | 43.88262 | -25.46821 | 34876 ft | 506 kts | 95° |
| 2026-05-07 04:07 | 43.87813 | -25.37072 | 34873 ft | 505 kts | 96° |
| 2026-05-07 04:08 | 43.87357 | -25.27362 | 34868 ft | 504 kts | 96° |
| 2026-05-07 04:08 | 43.86894 | -25.17702 | 34867 ft | 503 kts | 96° |
| 2026-05-07 04:09 | 43.86422 | -25.08038 | 34867 ft | 503 kts | 96° |
| 2026-05-07 04:09 | 43.85941 | -24.98339 | 34859 ft | 503 kts | 97° |
| 2026-05-07 04:10 | 43.85455 | -24.88702 | 34860 ft | 504 kts | 97° |
| 2026-05-07 04:10 | 43.84957 | -24.79006 | 34859 ft | 504 kts | 97° |
| 2026-05-07 04:11 | 43.84454 | -24.69364 | 34860 ft | 504 kts | 97° |
| 2026-05-07 04:11 | 43.83940 | -24.59658 | 34842 ft | 503 kts | 97° |
| 2026-05-07 04:12 | 43.83422 | -24.50037 | 34863 ft | 503 kts | 97° |
| 2026-05-07 04:12 | 43.82892 | -24.40351 | 34860 ft | 502 kts | 97° |
| 2026-05-07 04:13 | 43.82358 | -24.30741 | 34850 ft | 502 kts | 97° |
| 2026-05-07 04:13 | 43.81812 | -24.21071 | 34849 ft | 502 kts | 98° |
| 2026-05-07 04:14 | 43.81263 | -24.11477 | 34859 ft | 502 kts | 98° |
| 2026-05-07 04:14 | 43.80703 | -24.01833 | 34860 ft | 501 kts | 98° |
| 2026-05-07 04:15 | 43.80139 | -23.92264 | 34860 ft | 501 kts | 98° |
| 2026-05-07 04:15 | 43.79564 | -23.82653 | 34865 ft | 500 kts | 98° |
| 2026-05-07 04:16 | 43.78984 | -23.73098 | 34859 ft | 499 kts | 98° |
| 2026-05-07 04:16 | 43.78397 | -23.63549 | 34872 ft | 498 kts | 98° |
| 2026-05-07 04:17 | 43.77800 | -23.53974 | 34876 ft | 498 kts | 98° |
| 2026-05-07 04:17 | 43.77196 | -23.44419 | 34876 ft | 498 kts | 98° |
| 2026-05-07 04:18 | 43.76587 | -23.34921 | 34873 ft | 498 kts | 98° |
| 2026-05-07 04:18 | 43.75967 | -23.25366 | 34882 ft | 497 kts | 98° |
| 2026-05-07 04:19 | 43.75344 | -23.15877 | 34876 ft | 497 kts | 98° |
| 2026-05-07 04:19 | 43.74711 | -23.06365 | 34885 ft | 496 kts | 99° |
| 2026-05-07 04:20 | 43.74070 | -22.96865 | 34883 ft | 495 kts | 99° |
| 2026-05-07 04:20 | 43.73425 | -22.87407 | 34886 ft | 495 kts | 99° |
| 2026-05-07 04:21 | 43.72438 | -22.73179 | 34889 ft | 495 kts | 99° |
| 2026-05-07 04:21 | 43.71772 | -22.63706 | 34889 ft | 495 kts | 99° |
| 2026-05-07 04:22 | 43.71096 | -22.54214 | 34892 ft | 495 kts | 99° |
| 2026-05-07 04:22 | 43.70416 | -22.44779 | 34882 ft | 496 kts | 99° |
| 2026-05-07 04:23 | 43.69718 | -22.35215 | 34891 ft | 501 kts | 99° |
| 2026-05-07 04:23 | 43.69014 | -22.25667 | 34897 ft | 501 kts | 99° |
| 2026-05-07 04:24 | 43.68298 | -22.16064 | 34894 ft | 501 kts | 99° |
| 2026-05-07 04:24 | 43.67579 | -22.06521 | 34900 ft | 501 kts | 99° |
| 2026-05-07 04:25 | 43.66847 | -21.96929 | 34901 ft | 502 kts | 99° |
| 2026-05-07 04:25 | 43.66110 | -21.87389 | 34903 ft | 502 kts | 99° |
| 2026-05-07 04:26 | 43.65361 | -21.77780 | 34898 ft | 502 kts | 99° |
| 2026-05-07 04:26 | 43.64604 | -21.68184 | 34909 ft | 502 kts | 99° |
| 2026-05-07 04:27 | 43.63842 | -21.58626 | 34909 ft | 504 kts | 99° |
| 2026-05-07 04:27 | 43.63063 | -21.48970 | 34908 ft | 505 kts | 99° |
| 2026-05-07 04:28 | 43.62285 | -21.39402 | 34911 ft | 505 kts | 99° |
| 2026-05-07 04:28 | 43.61491 | -21.29754 | 34911 ft | 505 kts | 99° |
| 2026-05-07 04:29 | 43.60690 | -21.20114 | 34906 ft | 505 kts | 99° |
| 2026-05-07 04:29 | 43.59883 | -21.10511 | 34914 ft | 506 kts | 99° |
| 2026-05-07 04:30 | 43.59062 | -21.00831 | 34917 ft | 507 kts | 99° |
| 2026-05-07 04:30 | 43.58234 | -20.91163 | 34920 ft | 507 kts | 99° |
| 2026-05-07 04:31 | 43.57402 | -20.81553 | 34920 ft | 507 kts | 99° |
| 2026-05-07 04:31 | 43.56556 | -20.71883 | 34920 ft | 508 kts | 99° |
| 2026-05-07 04:32 | 43.55699 | -20.62181 | 34922 ft | 508 kts | 99° |
| 2026-05-07 04:32 | 43.54840 | -20.52556 | 34922 ft | 508 kts | 99° |
| 2026-05-07 04:33 | 43.53967 | -20.42857 | 34935 ft | 508 kts | 100° |
| 2026-05-07 04:33 | 43.53089 | -20.33203 | 34924 ft | 510 kts | 99° |
| 2026-05-07 04:34 | 43.52200 | -20.23524 | 34924 ft | 511 kts | 99° |
| 2026-05-07 04:34 | 43.51298 | -20.13792 | 34935 ft | 511 kts | 99° |
| 2026-05-07 04:35 | 43.50394 | -20.04122 | 34934 ft | 511 kts | 100° |
| 2026-05-07 04:35 | 43.49399 | -19.94417 | 34938 ft | 510 kts | 102° |
| 2026-05-07 04:36 | 43.48031 | -19.84840 | 34941 ft | 512 kts | 104° |
| 2026-05-07 04:36 | 43.46598 | -19.75275 | 34930 ft | 512 kts | 104° |
| 2026-05-07 04:37 | 43.45202 | -19.65646 | 34931 ft | 513 kts | 103° |
| 2026-05-07 04:37 | 43.43829 | -19.55994 | 34937 ft | 513 kts | 103° |
| 2026-05-07 04:38 | 43.42457 | -19.46353 | 34940 ft | 514 kts | 103° |
| 2026-05-07 04:38 | 43.41078 | -19.36724 | 34944 ft | 514 kts | 103° |
| 2026-05-07 04:39 | 43.39684 | -19.27071 | 34940 ft | 514 kts | 103° |
| 2026-05-07 04:39 | 43.38288 | -19.17474 | 34943 ft | 514 kts | 103° |
| 2026-05-07 04:40 | 43.36873 | -19.07802 | 34957 ft | 513 kts | 103° |
| 2026-05-07 04:40 | 43.35464 | -18.98226 | 34952 ft | 512 kts | 104° |
| 2026-05-07 04:41 | 43.34040 | -18.88616 | 34952 ft | 512 kts | 104° |
| 2026-05-07 04:41 | 43.32616 | -18.79059 | 34945 ft | 512 kts | 104° |
| 2026-05-07 04:42 | 43.31188 | -18.69530 | 34956 ft | 512 kts | 104° |
| 2026-05-07 04:42 | 43.29738 | -18.59921 | 34947 ft | 512 kts | 104° |
| 2026-05-07 04:43 | 43.28293 | -18.50393 | 34957 ft | 512 kts | 104° |
| 2026-05-07 04:43 | 43.26828 | -18.40799 | 34957 ft | 512 kts | 104° |
| 2026-05-07 04:44 | 43.25363 | -18.31262 | 34952 ft | 512 kts | 104° |
| 2026-05-07 04:44 | 43.23892 | -18.21731 | 34958 ft | 512 kts | 104° |
| 2026-05-07 04:45 | 43.22405 | -18.12160 | 34952 ft | 512 kts | 104° |
| 2026-05-07 04:45 | 43.20918 | -18.02648 | 34962 ft | 513 kts | 104° |
| 2026-05-07 04:46 | 43.19414 | -17.93075 | 34965 ft | 514 kts | 104° |
| 2026-05-07 04:46 | 43.17896 | -17.83477 | 34968 ft | 515 kts | 104° |
| 2026-05-07 04:47 | 43.16376 | -17.73916 | 34966 ft | 515 kts | 104° |
| 2026-05-07 04:47 | 43.14848 | -17.64357 | 34969 ft | 516 kts | 104° |
| 2026-05-07 04:48 | 43.13563 | -17.56361 | 34972 ft | 516 kts | 104° |
| 2026-05-07 04:48 | 43.12011 | -17.46756 | 34970 ft | 516 kts | 104° |
| 2026-05-07 04:49 | 43.10456 | -17.37189 | 34970 ft | 517 kts | 104° |
| 2026-05-07 04:49 | 43.08882 | -17.27561 | 34968 ft | 519 kts | 104° |
| 2026-05-07 04:50 | 43.07295 | -17.17901 | 34973 ft | 519 kts | 104° |
| 2026-05-07 04:50 | 43.05710 | -17.08313 | 34973 ft | 519 kts | 104° |
| 2026-05-07 04:51 | 43.04108 | -16.98672 | 34977 ft | 520 kts | 104° |
| 2026-05-07 04:51 | 43.02500 | -16.89046 | 34981 ft | 520 kts | 104° |
| 2026-05-07 04:52 | 43.00875 | -16.79375 | 34979 ft | 520 kts | 104° |
| 2026-05-07 04:52 | 42.99256 | -16.69798 | 34972 ft | 520 kts | 104° |
| 2026-05-07 04:53 | 42.97615 | -16.60135 | 34979 ft | 522 kts | 104° |
| 2026-05-07 04:53 | 42.95962 | -16.50460 | 34979 ft | 522 kts | 104° |
| 2026-05-07 04:54 | 42.94309 | -16.40840 | 34982 ft | 522 kts | 104° |
| 2026-05-07 04:54 | 42.92639 | -16.31171 | 34984 ft | 523 kts | 104° |
| 2026-05-07 04:55 | 42.90970 | -16.21563 | 34983 ft | 524 kts | 104° |
| 2026-05-07 04:55 | 42.89280 | -16.11876 | 34982 ft | 524 kts | 104° |
| 2026-05-07 04:56 | 42.87590 | -16.02245 | 34976 ft | 525 kts | 104° |
| 2026-05-07 04:56 | 42.85878 | -15.92541 | 34981 ft | 526 kts | 104° |
| 2026-05-07 04:57 | 42.84156 | -15.82831 | 34979 ft | 526 kts | 104° |
| 2026-05-07 04:57 | 42.82434 | -15.73174 | 34984 ft | 526 kts | 104° |
| 2026-05-07 04:58 | 42.80704 | -15.63530 | 34987 ft | 526 kts | 104° |
| 2026-05-07 04:58 | 42.78951 | -15.53804 | 34984 ft | 527 kts | 104° |
| 2026-05-07 04:59 | 42.77199 | -15.44131 | 34981 ft | 528 kts | 104° |
| 2026-05-07 04:59 | 42.75438 | -15.34458 | 34984 ft | 529 kts | 104° |
| 2026-05-07 05:00 | 42.73657 | -15.24724 | 34989 ft | 529 kts | 104° |
| 2026-05-07 05:00 | 42.71876 | -15.15045 | 34990 ft | 529 kts | 104° |
| 2026-05-07 05:01 | 42.70086 | -15.05369 | 34986 ft | 529 kts | 104° |
| 2026-05-07 05:01 | 42.68280 | -14.95654 | 34985 ft | 529 kts | 104° |
| 2026-05-07 05:02 | 42.66470 | -14.85972 | 34987 ft | 529 kts | 104° |
| 2026-05-07 05:02 | 42.64657 | -14.76312 | 34987 ft | 531 kts | 104° |
| 2026-05-07 05:03 | 42.62824 | -14.66602 | 34983 ft | 531 kts | 104° |
| 2026-05-07 05:03 | 42.60976 | -14.56858 | 34999 ft | 531 kts | 104° |
| 2026-05-07 05:04 | 42.59130 | -14.47181 | 34987 ft | 532 kts | 104° |
| 2026-05-07 05:04 | 42.57273 | -14.37489 | 34985 ft | 532 kts | 104° |
| 2026-05-07 05:05 | 42.55394 | -14.27728 | 34986 ft | 532 kts | 104° |
| 2026-05-07 05:05 | 42.53518 | -14.18036 | 34984 ft | 533 kts | 104° |
| 2026-05-07 05:06 | 42.51634 | -14.08348 | 34980 ft | 534 kts | 104° |
| 2026-05-07 05:06 | 42.49727 | -13.98593 | 34981 ft | 534 kts | 104° |
| 2026-05-07 05:07 | 42.47725 | -13.88879 | 34980 ft | 534 kts | 105° |
| 2026-05-07 05:07 | 42.45662 | -13.79224 | 34980 ft | 535 kts | 105° |
| 2026-05-07 05:08 | 42.43600 | -13.69563 | 34981 ft | 536 kts | 105° |
| 2026-05-07 05:08 | 42.41533 | -13.59854 | 34974 ft | 536 kts | 105° |
| 2026-05-07 05:09 | 42.39470 | -13.50184 | 34978 ft | 537 kts | 105° |
| 2026-05-07 05:09 | 42.37386 | -13.40462 | 34981 ft | 538 kts | 105° |
| 2026-05-07 05:10 | 42.35302 | -13.30783 | 34984 ft | 538 kts | 105° |
| 2026-05-07 05:10 | 42.33194 | -13.21040 | 34981 ft | 538 kts | 105° |
| 2026-05-07 05:11 | 42.31095 | -13.11388 | 34990 ft | 538 kts | 105° |
| 2026-05-07 05:11 | 42.28970 | -13.01659 | 34975 ft | 539 kts | 105° |
| 2026-05-07 05:12 | 42.26837 | -12.91931 | 34975 ft | 539 kts | 105° |
| 2026-05-07 05:12 | 42.24707 | -12.82267 | 34976 ft | 540 kts | 105° |
| 2026-05-07 05:13 | 42.22563 | -12.72581 | 34976 ft | 540 kts | 105° |
| 2026-05-07 05:13 | 42.20397 | -12.62837 | 34976 ft | 540 kts | 105° |
| 2026-05-07 05:14 | 42.18241 | -12.53183 | 34974 ft | 540 kts | 105° |
| 2026-05-07 05:14 | 42.16056 | -12.43444 | 34972 ft | 540 kts | 105° |
| 2026-05-07 05:15 | 42.13877 | -12.33778 | 34976 ft | 541 kts | 104° |
| 2026-05-07 05:15 | 42.11689 | -12.24106 | 34964 ft | 542 kts | 104° |
| 2026-05-07 05:16 | 42.09476 | -12.14370 | 34969 ft | 541 kts | 105° |
| 2026-05-07 05:16 | 42.07271 | -12.04715 | 34964 ft | 541 kts | 105° |
| 2026-05-07 05:17 | 42.05045 | -11.95012 | 34973 ft | 541 kts | 104° |
| 2026-05-07 05:17 | 42.02829 | -11.85389 | 34971 ft | 542 kts | 104° |
| 2026-05-07 05:18 | 42.00587 | -11.75697 | 34955 ft | 542 kts | 104° |
| 2026-05-07 05:18 | 41.98334 | -11.65996 | 34960 ft | 543 kts | 104° |
| 2026-05-07 05:19 | 41.96085 | -11.56354 | 34955 ft | 543 kts | 105° |
| 2026-05-07 05:19 | 41.93811 | -11.46651 | 34954 ft | 543 kts | 105° |
| 2026-05-07 05:20 | 41.91540 | -11.37002 | 34958 ft | 543 kts | 105° |
| 2026-05-07 05:20 | 41.89262 | -11.27366 | 34957 ft | 542 kts | 105° |
| 2026-05-07 05:21 | 41.85830 | -11.12928 | 34942 ft | 540 kts | 105° |
| 2026-05-07 05:22 | 41.83526 | -11.03277 | 34941 ft | 542 kts | 105° |
| 2026-05-07 05:22 | 41.81224 | -10.93675 | 34963 ft | 542 kts | 105° |
| 2026-05-07 05:23 | 41.78921 | -10.84121 | 34945 ft | 538 kts | 105° |
| 2026-05-07 05:23 | 41.76608 | -10.74564 | 34942 ft | 537 kts | 105° |
| 2026-05-07 05:24 | 41.74309 | -10.65093 | 34939 ft | 537 kts | 105° |
| 2026-05-07 05:24 | 41.71983 | -10.55554 | 34943 ft | 537 kts | 105° |
| 2026-05-07 05:25 | 41.69676 | -10.46138 | 34937 ft | 534 kts | 105° |
| 2026-05-07 05:25 | 41.67347 | -10.36667 | 34932 ft | 534 kts | 105° |
| 2026-05-07 05:26 | 41.65027 | -10.27264 | 34929 ft | 534 kts | 105° |
| 2026-05-07 05:26 | 41.62682 | -10.17802 | 34938 ft | 534 kts | 105° |
| 2026-05-07 05:27 | 41.60345 | -10.08409 | 34925 ft | 531 kts | 106° |
| 2026-05-07 05:27 | 41.58017 | -9.99089 | 34925 ft | 531 kts | 106° |
| 2026-05-07 05:28 | 41.55667 | -9.89717 | 34914 ft | 531 kts | 105° |
| 2026-05-07 05:28 | 41.53320 | -9.80396 | 34928 ft | 532 kts | 106° |
| 2026-05-07 05:29 | 41.50973 | -9.71114 | 34920 ft | 529 kts | 106° |
| 2026-05-07 05:29 | 41.48607 | -9.61791 | 34914 ft | 529 kts | 106° |
| 2026-05-07 05:30 | 41.46237 | -9.52488 | 34913 ft | 529 kts | 106° |
| 2026-05-07 05:30 | 41.43874 | -9.43247 | 34918 ft | 529 kts | 107° |
| 2026-05-07 05:31 | 41.41493 | -9.33981 | 34909 ft | 526 kts | 107° |
| 2026-05-07 05:31 | 41.39128 | -9.24808 | 34913 ft | 526 kts | 107° |
| 2026-05-07 05:32 | 41.36742 | -9.15582 | 34906 ft | 527 kts | 107° |
| 2026-05-07 05:32 | 41.34350 | -9.06373 | 34911 ft | 527 kts | 107° |
| 2026-05-07 05:33 | 41.31954 | -8.97187 | 34906 ft | 523 kts | 107° |
| 2026-05-07 05:33 | 41.29557 | -8.88033 | 34909 ft | 523 kts | 107° |
| 2026-05-07 05:34 | 41.27169 | -8.78940 | 34911 ft | 523 kts | 107° |
| 2026-05-07 05:34 | 41.24771 | -8.69842 | 34922 ft | 522 kts | 108° |
| 2026-05-07 05:35 | 41.22360 | -8.60738 | 34911 ft | 518 kts | 108° |
| 2026-05-07 05:35 | 41.19972 | -8.51745 | 34910 ft | 519 kts | 108° |
| 2026-05-07 05:36 | 41.17573 | -8.42744 | 34903 ft | 519 kts | 108° |
| 2026-05-07 05:36 | 41.15151 | -8.33690 | 34920 ft | 519 kts | 109° |
| 2026-05-07 05:37 | 41.12749 | -8.24745 | 34905 ft | 514 kts | 109° |
| 2026-05-07 05:37 | 41.10346 | -8.15829 | 34909 ft | 512 kts | 109° |
| 2026-05-07 05:38 | 41.07936 | -8.06922 | 34908 ft | 512 kts | 109° |
| 2026-05-07 05:38 | 41.05534 | -7.98074 | 34910 ft | 514 kts | 109° |
| 2026-05-07 05:39 | 41.03494 | -7.90586 | 34910 ft | 515 kts | 109° |
| 2026-05-07 05:39 | 41.00666 | -7.80235 | 34911 ft | 515 kts | 109° |
| 2026-05-07 05:40 | 40.98627 | -7.72803 | 34915 ft | 515 kts | 109° |
| 2026-05-07 05:40 | 40.96173 | -7.63883 | 34914 ft | 515 kts | 109° |
| 2026-05-07 05:41 | 40.93728 | -7.55026 | 34917 ft | 513 kts | 110° |
| 2026-05-07 05:41 | 40.91275 | -7.46172 | 34920 ft | 510 kts | 110° |
| 2026-05-07 05:42 | 40.88836 | -7.37404 | 34913 ft | 510 kts | 110° |
| 2026-05-07 05:42 | 40.86373 | -7.28583 | 34919 ft | 511 kts | 110° |
| 2026-05-07 05:43 | 40.83904 | -7.19764 | 34919 ft | 511 kts | 111° |
| 2026-05-07 05:43 | 40.81451 | -7.11033 | 34916 ft | 508 kts | 111° |
| 2026-05-07 05:44 | 40.78988 | -7.02296 | 34917 ft | 507 kts | 111° |
| 2026-05-07 05:44 | 40.76514 | -6.93554 | 34916 ft | 507 kts | 111° |
| 2026-05-07 05:45 | 40.74047 | -6.84862 | 34916 ft | 507 kts | 111° |
| 2026-05-07 05:45 | 40.71567 | -6.76151 | 34920 ft | 504 kts | 112° |
| 2026-05-07 05:46 | 40.69105 | -6.67538 | 34919 ft | 504 kts | 112° |
| 2026-05-07 05:46 | 40.66621 | -6.58878 | 34919 ft | 505 kts | 112° |
| 2026-05-07 05:47 | 40.64129 | -6.50218 | 34916 ft | 505 kts | 112° |
| 2026-05-07 05:47 | 40.61648 | -6.41620 | 34914 ft | 503 kts | 114° |
| 2026-05-07 05:48 | 40.59204 | -6.33069 | 34915 ft | 501 kts | 111° |
| 2026-05-07 05:48 | 40.57749 | -6.24040 | 34920 ft | 505 kts | 101° |
| 2026-05-07 05:49 | 40.56817 | -6.14917 | 34923 ft | 506 kts | 99° |
| 2026-05-07 05:49 | 40.55958 | -6.05717 | 34918 ft | 506 kts | 100° |
| 2026-05-07 05:50 | 40.55084 | -5.96540 | 34921 ft | 504 kts | 101° |
| 2026-05-07 05:50 | 40.54188 | -5.87425 | 34919 ft | 504 kts | 101° |
| 2026-05-07 05:51 | 40.53281 | -5.78327 | 34926 ft | 504 kts | 101° |
| 2026-05-07 05:51 | 40.52358 | -5.69161 | 34917 ft | 504 kts | 101° |
| 2026-05-07 05:52 | 40.51435 | -5.60054 | 34924 ft | 503 kts | 101° |
| 2026-05-07 05:52 | 40.50507 | -5.50988 | 34925 ft | 503 kts | 101° |
| 2026-05-07 05:53 | 40.49572 | -5.41912 | 34925 ft | 503 kts | 101° |
| 2026-05-07 05:53 | 40.48626 | -5.32802 | 34912 ft | 503 kts | 101° |
| 2026-05-07 05:54 | 40.47671 | -5.23673 | 34926 ft | 502 kts | 101° |
| 2026-05-07 05:54 | 40.46718 | -5.14623 | 34930 ft | 502 kts | 102° |
| 2026-05-07 05:55 | 40.45752 | -5.05534 | 34927 ft | 502 kts | 102° |
| 2026-05-07 05:55 | 40.44776 | -4.96428 | 34926 ft | 502 kts | 102° |
| 2026-05-07 05:56 | 40.43796 | -4.87364 | 34916 ft | 504 kts | 102° |
| 2026-05-07 05:56 | 40.42805 | -4.78241 | 34933 ft | 504 kts | 102° |
| 2026-05-07 05:57 | 40.41811 | -4.69168 | 34936 ft | 504 kts | 102° |
| 2026-05-07 05:57 | 40.40810 | -4.60041 | 34930 ft | 505 kts | 102° |
| 2026-05-07 05:58 | 40.39799 | -4.50947 | 34926 ft | 506 kts | 102° |
| 2026-05-07 05:58 | 40.38770 | -4.41754 | 34918 ft | 506 kts | 102° |
| 2026-05-07 05:59 | 40.37745 | -4.32658 | 34928 ft | 506 kts | 102° |
| 2026-05-07 05:59 | 40.36703 | -4.23488 | 34927 ft | 506 kts | 102° |
| 2026-05-07 06:00 | 40.35281 | -4.14536 | 34925 ft | 503 kts | 108° |
| 2026-05-07 06:00 | 40.33598 | -4.05621 | 34932 ft | 503 kts | 108° |
| 2026-05-07 06:01 | 40.31957 | -3.96733 | 34929 ft | 503 kts | 107° |
| 2026-05-07 06:01 | 40.30360 | -3.87779 | 34918 ft | 503 kts | 107° |
| 2026-05-07 06:02 | 40.28785 | -3.78867 | 34921 ft | 504 kts | 107° |
| 2026-05-07 06:02 | 40.27201 | -3.69937 | 34937 ft | 504 kts | 107° |
| 2026-05-07 06:03 | 40.25599 | -3.60968 | 34939 ft | 505 kts | 107° |
| 2026-05-07 06:03 | 40.24001 | -3.52069 | 34937 ft | 504 kts | 107° |
| 2026-05-07 06:04 | 40.22382 | -3.43103 | 34911 ft | 504 kts | 107° |
| 2026-05-07 06:04 | 40.20766 | -3.34198 | 34927 ft | 506 kts | 107° |
| 2026-05-07 06:05 | 40.19130 | -3.25216 | 34926 ft | 506 kts | 107° |
| 2026-05-07 06:05 | 40.17494 | -3.16285 | 34928 ft | 506 kts | 107° |
| 2026-05-07 06:06 | 40.15855 | -3.07374 | 34922 ft | 505 kts | 107° |
| 2026-05-07 06:06 | 40.14209 | -2.98467 | 34925 ft | 507 kts | 107° |
| 2026-05-07 06:07 | 40.12543 | -2.89495 | 34933 ft | 507 kts | 107° |
| 2026-05-07 06:07 | 40.10877 | -2.80557 | 34933 ft | 507 kts | 107° |
| 2026-05-07 06:08 | 40.09195 | -2.71580 | 34941 ft | 507 kts | 107° |
| 2026-05-07 06:08 | 40.07518 | -2.62675 | 34939 ft | 508 kts | 108° |
| 2026-05-07 06:09 | 40.05819 | -2.53691 | 34941 ft | 508 kts | 108° |
| 2026-05-07 06:09 | 40.04122 | -2.44759 | 34941 ft | 508 kts | 108° |
| 2026-05-07 06:10 | 40.02407 | -2.35768 | 34931 ft | 508 kts | 108° |
| 2026-05-07 06:10 | 40.00694 | -2.26835 | 34929 ft | 508 kts | 108° |
| 2026-05-07 06:11 | 39.98776 | -2.17988 | 34955 ft | 505 kts | 116° |
| 2026-05-07 06:11 | 39.95706 | -2.09821 | 34960 ft | 500 kts | 123° |
| 2026-05-07 06:12 | 39.92353 | -2.01865 | 34960 ft | 500 kts | 124° |
| 2026-05-07 06:12 | 39.88970 | -1.93991 | 34969 ft | 499 kts | 124° |
| 2026-05-07 06:13 | 39.85600 | -1.86122 | 34972 ft | 501 kts | 124° |
| 2026-05-07 06:13 | 39.82205 | -1.78178 | 34979 ft | 501 kts | 124° |
| 2026-05-07 06:14 | 39.78809 | -1.70238 | 34960 ft | 501 kts | 124° |
| 2026-05-07 06:14 | 39.75422 | -1.62336 | 34986 ft | 503 kts | 124° |
| 2026-05-07 06:15 | 39.72003 | -1.54385 | 34983 ft | 503 kts | 124° |
| 2026-05-07 06:15 | 39.68608 | -1.46502 | 34989 ft | 503 kts | 125° |
| 2026-05-07 06:16 | 39.65167 | -1.38552 | 34990 ft | 503 kts | 125° |
| 2026-05-07 06:16 | 39.61746 | -1.30664 | 34991 ft | 503 kts | 125° |
| 2026-05-07 06:17 | 39.58318 | -1.22780 | 34993 ft | 503 kts | 125° |
| 2026-05-07 06:17 | 39.54882 | -1.14895 | 34990 ft | 504 kts | 125° |
| 2026-05-07 06:18 | 39.51410 | -1.06950 | 34987 ft | 505 kts | 125° |
| 2026-05-07 06:18 | 39.47948 | -0.99055 | 34981 ft | 506 kts | 125° |
| 2026-05-07 06:19 | 39.44484 | -0.91174 | 34968 ft | 505 kts | 125° |
| 2026-05-07 06:19 | 39.41005 | -0.83233 | 34968 ft | 506 kts | 125° |
| 2026-05-07 06:20 | 39.37547 | -0.75370 | 34941 ft | 505 kts | 126° |
| 2026-05-07 06:20 | 39.34038 | -0.67460 | 34956 ft | 507 kts | 126° |
| 2026-05-07 06:21 | 39.30532 | -0.59576 | 34962 ft | 508 kts | 126° |
| 2026-05-07 06:21 | 39.27496 | -0.51232 | 34962 ft | 517 kts | 115° |
| 2026-05-07 06:22 | 39.25188 | -0.42438 | 34959 ft | 519 kts | 113° |
| 2026-05-07 06:22 | 39.21901 | -0.29142 | 34961 ft | 519 kts | 113° |
| 2026-05-07 06:23 | 39.19683 | -0.20253 | 34961 ft | 519 kts | 113° |
| 2026-05-07 06:23 | 39.17462 | -0.11452 | 34960 ft | 519 kts | 114° |
| 2026-05-07 06:24 | 39.15213 | -0.02591 | 34961 ft | 519 kts | 114° |
| 2026-05-07 06:24 | 39.12968 | 0.06219 | 34960 ft | 520 kts | 114° |
| 2026-05-07 06:25 | 39.10699 | 0.15095 | 34962 ft | 522 kts | 114° |
| 2026-05-07 06:25 | 39.08432 | 0.23937 | 34963 ft | 522 kts | 114° |
| 2026-05-07 06:26 | 39.06142 | 0.32835 | 34960 ft | 522 kts | 114° |
| 2026-05-07 06:26 | 39.03863 | 0.41658 | 34957 ft | 523 kts | 114° |
| 2026-05-07 06:27 | 39.01554 | 0.50562 | 34960 ft | 524 kts | 114° |
| 2026-05-07 06:27 | 38.99234 | 0.59484 | 34961 ft | 525 kts | 115° |
| 2026-05-07 06:28 | 38.96924 | 0.68334 | 34958 ft | 525 kts | 115° |
| 2026-05-07 06:28 | 38.94986 | 0.75735 | 34958 ft | 524 kts | 115° |
| 2026-05-07 06:29 | 38.92655 | 0.84600 | 34958 ft | 526 kts | 115° |
| 2026-05-07 06:29 | 38.90305 | 0.93511 | 34965 ft | 526 kts | 115° |
| 2026-05-07 06:30 | 38.87958 | 1.02384 | 34943 ft | 526 kts | 115° |
| 2026-05-07 06:30 | 38.85589 | 1.11304 | 34941 ft | 527 kts | 115° |
| 2026-05-07 06:31 | 38.83227 | 1.20164 | 34935 ft | 527 kts | 115° |
| 2026-05-07 06:31 | 38.80844 | 1.29072 | 34937 ft | 527 kts | 115° |
| 2026-05-07 06:32 | 38.78469 | 1.37922 | 34938 ft | 527 kts | 115° |
| 2026-05-07 06:32 | 38.76075 | 1.46813 | 34938 ft | 527 kts | 115° |
| 2026-05-07 06:33 | 38.73672 | 1.55705 | 34929 ft | 527 kts | 115° |
| 2026-05-07 06:33 | 38.71269 | 1.64561 | 34939 ft | 529 kts | 115° |
| 2026-05-07 06:34 | 38.68846 | 1.73466 | 34943 ft | 529 kts | 115° |
| 2026-05-07 06:34 | 38.66414 | 1.82373 | 34944 ft | 529 kts | 115° |
| 2026-05-07 06:35 | 38.63987 | 1.91232 | 34924 ft | 529 kts | 115° |
| 2026-05-07 06:35 | 38.61528 | 2.00165 | 34951 ft | 535 kts | 116° |
| 2026-05-07 06:36 | 38.59058 | 2.09114 | 34950 ft | 536 kts | 116° |
| 2026-05-07 06:36 | 38.56567 | 2.18118 | 34950 ft | 536 kts | 116° |
| 2026-05-07 06:37 | 38.54080 | 2.27075 | 34951 ft | 536 kts | 116° |
| 2026-05-07 06:37 | 38.51578 | 2.36041 | 34946 ft | 541 kts | 117° |
| 2026-05-07 06:38 | 38.49032 | 2.45130 | 34947 ft | 543 kts | 117° |
| 2026-05-07 06:38 | 38.46481 | 2.54228 | 34948 ft | 543 kts | 117° |
| 2026-05-07 06:39 | 38.43935 | 2.63276 | 34946 ft | 543 kts | 117° |
| 2026-05-07 06:39 | 38.41381 | 2.72310 | 34946 ft | 546 kts | 117° |
| 2026-05-07 06:40 | 38.38782 | 2.81463 | 34944 ft | 549 kts | 117° |
| 2026-05-07 06:40 | 38.36176 | 2.90623 | 34948 ft | 549 kts | 117° |
| 2026-05-07 06:41 | 38.33579 | 2.99723 | 34944 ft | 548 kts | 118° |
| 2026-05-07 06:41 | 38.30964 | 3.08853 | 34949 ft | 550 kts | 118° |
| 2026-05-07 06:42 | 38.28310 | 3.18065 | 34945 ft | 554 kts | 118° |
| 2026-05-07 06:42 | 38.25670 | 3.27217 | 34944 ft | 554 kts | 118° |
| 2026-05-07 06:43 | 38.22996 | 3.36462 | 34943 ft | 554 kts | 118° |
| 2026-05-07 06:43 | 38.20329 | 3.45610 | 34939 ft | 553 kts | 119° |
| 2026-05-07 06:44 | 38.17506 | 3.54718 | 34945 ft | 551 kts | 120° |
| 2026-05-07 06:44 | 38.14655 | 3.63717 | 34945 ft | 551 kts | 120° |
| 2026-05-07 06:45 | 38.11791 | 3.72799 | 34929 ft | 553 kts | 121° |
| 2026-05-07 06:45 | 38.08946 | 3.81837 | 34921 ft | 554 kts | 121° |
| 2026-05-07 06:46 | 38.06075 | 3.90941 | 34933 ft | 559 kts | 121° |
| 2026-05-07 06:46 | 38.03173 | 4.00130 | 34937 ft | 560 kts | 121° |
| 2026-05-07 06:47 | 38.00279 | 4.09267 | 34941 ft | 560 kts | 121° |
| 2026-05-07 06:47 | 37.97361 | 4.18446 | 34938 ft | 559 kts | 121° |
| 2026-05-07 06:48 | 37.94444 | 4.27579 | 34936 ft | 563 kts | 121° |
| 2026-05-07 06:48 | 37.91484 | 4.36815 | 34932 ft | 565 kts | 121° |
| 2026-05-07 06:49 | 37.88535 | 4.46002 | 34941 ft | 564 kts | 121° |
| 2026-05-07 06:49 | 37.85584 | 4.55173 | 34936 ft | 565 kts | 122° |
| 2026-05-07 06:50 | 37.82597 | 4.64408 | 34934 ft | 567 kts | 122° |
| 2026-05-07 06:50 | 37.79615 | 4.73592 | 34934 ft | 568 kts | 122° |
| 2026-05-07 06:51 | 37.76605 | 4.82846 | 34934 ft | 568 kts | 123° |
| 2026-05-07 06:51 | 37.73607 | 4.92036 | 34936 ft | 567 kts | 123° |
| 2026-05-07 06:52 | 37.70582 | 5.01272 | 34935 ft | 570 kts | 123° |
| 2026-05-07 06:52 | 37.67699 | 5.10680 | 34933 ft | 576 kts | 120° |
| 2026-05-07 06:53 | 37.64937 | 5.20192 | 34933 ft | 576 kts | 120° |
| 2026-05-07 06:53 | 37.62160 | 5.29648 | 34933 ft | 576 kts | 120° |
| 2026-05-07 06:54 | 37.59346 | 5.39064 | 34935 ft | 577 kts | 120° |
| 2026-05-07 06:54 | 37.56489 | 5.48542 | 34928 ft | 574 kts | 121° |
| 2026-05-07 06:55 | 37.53664 | 5.57890 | 34931 ft | 573 kts | 121° |
| 2026-05-07 06:55 | 37.50815 | 5.67276 | 34931 ft | 572 kts | 121° |
| 2026-05-07 06:56 | 37.47982 | 5.76582 | 34923 ft | 572 kts | 120° |
| 2026-05-07 06:56 | 37.45115 | 5.85976 | 34929 ft | 572 kts | 120° |
| 2026-05-07 06:57 | 37.42263 | 5.95290 | 34928 ft | 572 kts | 120° |
| 2026-05-07 06:57 | 37.39407 | 6.04589 | 34927 ft | 571 kts | 120° |
| 2026-05-07 06:58 | 37.36527 | 6.13929 | 34939 ft | 572 kts | 120° |
| 2026-05-07 06:58 | 37.33654 | 6.23215 | 34931 ft | 572 kts | 120° |
| 2026-05-07 06:59 | 37.30757 | 6.32549 | 34938 ft | 572 kts | 120° |
| 2026-05-07 06:59 | 37.27881 | 6.41793 | 34934 ft | 570 kts | 120° |
| 2026-05-07 07:00 | 37.24983 | 6.51075 | 34930 ft | 568 kts | 120° |
| 2026-05-07 07:00 | 37.22107 | 6.60251 | 34945 ft | 568 kts | 120° |
| 2026-05-07 07:01 | 37.19200 | 6.69493 | 34937 ft | 568 kts | 120° |
| 2026-05-07 07:01 | 37.16306 | 6.78665 | 34938 ft | 568 kts | 120° |
| 2026-05-07 07:02 | 37.13385 | 6.87894 | 34943 ft | 568 kts | 120° |
| 2026-05-07 07:02 | 37.10478 | 6.97050 | 34925 ft | 567 kts | 120° |
| 2026-05-07 07:03 | 37.07547 | 7.06254 | 34942 ft | 567 kts | 120° |
| 2026-05-07 07:03 | 37.04629 | 7.15388 | 34948 ft | 567 kts | 120° |
| 2026-05-07 07:04 | 37.01688 | 7.24565 | 34948 ft | 567 kts | 121° |
| 2026-05-07 07:04 | 36.98753 | 7.33693 | 34944 ft | 567 kts | 120° |
| 2026-05-07 07:05 | 36.95811 | 7.42812 | 34944 ft | 566 kts | 120° |
| 2026-05-07 07:05 | 36.92851 | 7.51962 | 34941 ft | 566 kts | 121° |
| 2026-05-07 07:06 | 36.89899 | 7.61053 | 34933 ft | 566 kts | 120° |
| 2026-05-07 07:06 | 36.86922 | 7.70212 | 34935 ft | 568 kts | 120° |
| 2026-05-07 07:07 | 36.84144 | 7.79459 | 34938 ft | 577 kts | 111° |
| 2026-05-07 07:07 | 36.83440 | 7.84446 | 34942 ft | 587 kts | 99° |
| 2026-05-07 07:07 | 36.83235 | 7.89555 | 34940 ft | 590 kts | 96° |
| 2026-05-07 07:08 | 36.83208 | 7.99772 | 34932 ft | 592 kts | 92° |
| 2026-05-07 07:08 | 36.83331 | 8.10037 | 34941 ft | 592 kts | 92° |
| 2026-05-07 07:09 | 36.83417 | 8.20351 | 34943 ft | 592 kts | 93° |
| 2026-05-07 07:09 | 36.83450 | 8.30638 | 34945 ft | 592 kts | 93° |
| 2026-05-07 07:10 | 36.83460 | 8.40856 | 34945 ft | 592 kts | 93° |
| 2026-05-07 07:10 | 36.83459 | 8.51170 | 34946 ft | 591 kts | 93° |
| 2026-05-07 07:11 | 36.83454 | 8.61391 | 34943 ft | 592 kts | 93° |
| 2026-05-07 07:11 | 36.83302 | 8.71668 | 34940 ft | 588 kts | 97° |
| 2026-05-07 07:12 | 36.82578 | 8.81778 | 34937 ft | 587 kts | 100° |
| 2026-05-07 07:12 | 36.81762 | 8.91947 | 34941 ft | 588 kts | 99° |
| 2026-05-07 07:13 | 36.81035 | 9.02065 | 34944 ft | 588 kts | 98° |
| 2026-05-07 07:13 | 36.80353 | 9.12284 | 34937 ft | 589 kts | 98° |
| 2026-05-07 07:14 | 36.79680 | 9.22435 | 34945 ft | 590 kts | 98° |
| 2026-05-07 07:14 | 36.78985 | 9.32650 | 34944 ft | 590 kts | 98° |
| 2026-05-07 07:15 | 36.78281 | 9.42809 | 34939 ft | 590 kts | 98° |
| 2026-05-07 07:15 | 36.77564 | 9.53028 | 34938 ft | 591 kts | 98° |
| 2026-05-07 07:16 | 36.76838 | 9.63262 | 34936 ft | 591 kts | 98° |
| 2026-05-07 07:16 | 36.76106 | 9.73434 | 34933 ft | 591 kts | 98° |
| 2026-05-07 07:17 | 36.75365 | 9.83618 | 34899 ft | 591 kts | 98° |
| 2026-05-07 07:17 | 36.74740 | 9.92102 | 34916 ft | 590 kts | 98° |
| 2026-05-07 07:18 | 36.73982 | 10.02306 | 34922 ft | 589 kts | 98° |
| 2026-05-07 07:18 | 36.73220 | 10.12437 | 34919 ft | 589 kts | 98° |
| 2026-05-07 07:19 | 36.72444 | 10.22626 | 34901 ft | 589 kts | 98° |
| 2026-05-07 07:19 | 36.71663 | 10.32789 | 34927 ft | 586 kts | 98° |
| 2026-05-07 07:20 | 36.70878 | 10.42886 | 34914 ft | 586 kts | 98° |
| 2026-05-07 07:20 | 36.70081 | 10.53012 | 34922 ft | 586 kts | 98° |
| 2026-05-07 07:21 | 36.69280 | 10.63063 | 34913 ft | 586 kts | 98° |
| 2026-05-07 07:21 | 36.68464 | 10.73199 | 34906 ft | 586 kts | 98° |
| 2026-05-07 07:22 | 36.67647 | 10.83256 | 34910 ft | 586 kts | 98° |
| 2026-05-07 07:22 | 36.66815 | 10.93395 | 34900 ft | 586 kts | 98° |
| 2026-05-07 07:23 | 36.65981 | 11.03452 | 34896 ft | 586 kts | 98° |
| 2026-05-07 07:23 | 36.65133 | 11.13554 | 34893 ft | 586 kts | 98° |
| 2026-05-07 07:24 | 36.64281 | 11.23622 | 34895 ft | 586 kts | 98° |
| 2026-05-07 07:24 | 36.63415 | 11.33733 | 34884 ft | 586 kts | 98° |
| 2026-05-07 07:25 | 36.61867 | 11.48754 | 34881 ft | 582 kts | 108° |
| 2026-05-07 07:26 | 36.59063 | 11.58066 | 34882 ft | 573 kts | 119° |
| 2026-05-07 07:26 | 36.55756 | 11.67077 | 34879 ft | 572 kts | 121° |
| 2026-05-07 07:27 | 36.52360 | 11.76011 | 34866 ft | 572 kts | 121° |
| 2026-05-07 07:27 | 36.49701 | 11.85418 | 34875 ft | 582 kts | 105° |
| 2026-05-07 07:28 | 36.48253 | 11.95365 | 34866 ft | 585 kts | 102° |
| 2026-05-07 07:28 | 36.47040 | 12.05309 | 34844 ft | 585 kts | 101° |
| 2026-05-07 07:29 | 36.45826 | 12.15321 | 34856 ft | 584 kts | 101° |
| 2026-05-07 07:29 | 36.44577 | 12.25258 | 34855 ft | 584 kts | 101° |
| 2026-05-07 07:30 | 36.43294 | 12.35230 | 34857 ft | 584 kts | 102° |
| 2026-05-07 07:30 | 36.41997 | 12.45217 | 34848 ft | 584 kts | 101° |
| 2026-05-07 07:31 | 36.40705 | 12.55116 | 34846 ft | 583 kts | 101° |
| 2026-05-07 07:31 | 36.39398 | 12.65080 | 34837 ft | 583 kts | 101° |
| 2026-05-07 07:32 | 36.38093 | 12.74964 | 34838 ft | 583 kts | 102° |
| 2026-05-07 07:32 | 36.36769 | 12.84924 | 34833 ft | 583 kts | 101° |
| 2026-05-07 07:33 | 36.35444 | 12.94828 | 34827 ft | 583 kts | 101° |
| 2026-05-07 07:33 | 36.34113 | 13.04714 | 34829 ft | 583 kts | 102° |
| 2026-05-07 07:34 | 36.32768 | 13.14632 | 34814 ft | 582 kts | 101° |
| 2026-05-07 07:34 | 36.31414 | 13.24556 | 34820 ft | 582 kts | 101° |
| 2026-05-07 07:35 | 36.30061 | 13.34414 | 34821 ft | 582 kts | 102° |
| 2026-05-07 07:35 | 36.28692 | 13.44318 | 34821 ft | 582 kts | 102° |
| 2026-05-07 07:36 | 36.27325 | 13.54149 | 34815 ft | 582 kts | 101° |
| 2026-05-07 07:36 | 36.25940 | 13.64049 | 34818 ft | 581 kts | 101° |
| 2026-05-07 07:37 | 36.24559 | 13.73861 | 34816 ft | 581 kts | 101° |
| 2026-05-07 07:37 | 36.23161 | 13.83734 | 34807 ft | 580 kts | 102° |
| 2026-05-07 07:38 | 36.21755 | 13.93593 | 34812 ft | 580 kts | 101° |
| 2026-05-07 07:38 | 36.20351 | 14.03387 | 34812 ft | 580 kts | 101° |
| 2026-05-07 07:39 | 36.18928 | 14.13255 | 34817 ft | 580 kts | 102° |
| 2026-05-07 07:39 | 36.17504 | 14.23064 | 34830 ft | 580 kts | 101° |
| 2026-05-07 07:40 | 36.16067 | 14.32904 | 34828 ft | 580 kts | 101° |
| 2026-05-07 07:40 | 36.14630 | 14.42690 | 34832 ft | 580 kts | 102° |
| 2026-05-07 07:41 | 36.13177 | 14.52530 | 34837 ft | 580 kts | 102° |
| 2026-05-07 07:41 | 36.11726 | 14.62293 | 34837 ft | 580 kts | 102° |
| 2026-05-07 07:42 | 36.10257 | 14.72122 | 34842 ft | 580 kts | 102° |
| 2026-05-07 07:42 | 36.08780 | 14.81945 | 34842 ft | 580 kts | 102° |
| 2026-05-07 07:43 | 36.07304 | 14.91706 | 34842 ft | 580 kts | 102° |
| 2026-05-07 07:43 | 36.05811 | 15.01518 | 34849 ft | 579 kts | 102° |
| 2026-05-07 07:44 | 36.04321 | 15.11259 | 34852 ft | 578 kts | 102° |
| 2026-05-07 07:44 | 36.02825 | 15.20989 | 34853 ft | 578 kts | 102° |
| 2026-05-07 07:45 | 36.01313 | 15.30759 | 34859 ft | 578 kts | 102° |
| 2026-05-07 07:45 | 35.99793 | 15.40530 | 34865 ft | 578 kts | 102° |
| 2026-05-07 07:46 | 35.98276 | 15.50229 | 34870 ft | 577 kts | 102° |
| 2026-05-07 07:46 | 35.96743 | 15.59977 | 34870 ft | 577 kts | 102° |
| 2026-05-07 07:47 | 35.95237 | 15.69737 | 34878 ft | 578 kts | 101° |
| 2026-05-07 07:47 | 35.93801 | 15.79461 | 34876 ft | 577 kts | 101° |
| 2026-05-07 07:48 | 35.92354 | 15.89214 | 34884 ft | 577 kts | 101° |
| 2026-05-07 07:48 | 35.90896 | 15.98903 | 34892 ft | 577 kts | 101° |
| 2026-05-07 07:49 | 35.89413 | 16.08660 | 34897 ft | 576 kts | 101° |
| 2026-05-07 07:49 | 35.87933 | 16.18338 | 34901 ft | 576 kts | 101° |
| 2026-05-07 07:50 | 35.86447 | 16.28003 | 34905 ft | 576 kts | 101° |
| 2026-05-07 07:50 | 35.84945 | 16.37717 | 34914 ft | 575 kts | 101° |
| 2026-05-07 07:51 | 35.83438 | 16.47413 | 34914 ft | 575 kts | 101° |
| 2026-05-07 07:51 | 35.81931 | 16.57057 | 34925 ft | 575 kts | 101° |
| 2026-05-07 07:52 | 35.80409 | 16.66748 | 34931 ft | 575 kts | 101° |
| 2026-05-07 07:52 | 35.78888 | 16.76367 | 34927 ft | 575 kts | 101° |
| 2026-05-07 07:53 | 35.77352 | 16.86035 | 34939 ft | 574 kts | 101° |
| 2026-05-07 07:53 | 35.75815 | 16.95662 | 34946 ft | 574 kts | 101° |
| 2026-05-07 07:54 | 35.74261 | 17.05341 | 34945 ft | 575 kts | 101° |
| 2026-05-07 07:54 | 35.72701 | 17.14997 | 34952 ft | 574 kts | 101° |
| 2026-05-07 07:55 | 35.71147 | 17.24577 | 34963 ft | 573 kts | 101° |
| 2026-05-07 07:55 | 35.69583 | 17.34160 | 34980 ft | 573 kts | 101° |
| 2026-05-07 07:56 | 35.68001 | 17.43804 | 34969 ft | 573 kts | 101° |
| 2026-05-07 07:56 | 35.66418 | 17.53406 | 34979 ft | 572 kts | 101° |
| 2026-05-07 07:57 | 35.64836 | 17.62949 | 34984 ft | 572 kts | 101° |
| 2026-05-07 07:57 | 35.63235 | 17.72558 | 34989 ft | 572 kts | 101° |
| 2026-05-07 07:58 | 35.61630 | 17.82143 | 35003 ft | 572 kts | 101° |
| 2026-05-07 07:58 | 35.60027 | 17.91668 | 35012 ft | 571 kts | 101° |
| 2026-05-07 07:59 | 35.58404 | 18.01259 | 35007 ft | 571 kts | 101° |
| 2026-05-07 07:59 | 35.56788 | 18.10762 | 35018 ft | 571 kts | 101° |
| 2026-05-07 08:00 | 35.55151 | 18.20345 | 35024 ft | 571 kts | 101° |
| 2026-05-07 08:00 | 35.53508 | 18.29910 | 35021 ft | 572 kts | 101° |
| 2026-05-07 08:01 | 35.51867 | 18.39420 | 35019 ft | 571 kts | 102° |
| 2026-05-07 08:01 | 35.50207 | 18.48984 | 35027 ft | 571 kts | 101° |
| 2026-05-07 08:02 | 35.48552 | 18.58478 | 35034 ft | 571 kts | 101° |
| 2026-05-07 08:02 | 35.46882 | 18.68015 | 35035 ft | 571 kts | 101° |
| 2026-05-07 08:03 | 35.45210 | 18.77510 | 35043 ft | 571 kts | 102° |
| 2026-05-07 08:03 | 35.43521 | 18.87057 | 35046 ft | 572 kts | 102° |
| 2026-05-07 08:04 | 35.41835 | 18.96545 | 35042 ft | 572 kts | 102° |
| 2026-05-07 08:04 | 35.40128 | 19.06102 | 35052 ft | 572 kts | 102° |
| 2026-05-07 08:05 | 35.38431 | 19.15553 | 35048 ft | 572 kts | 102° |
| 2026-05-07 08:05 | 35.36714 | 19.25076 | 35054 ft | 571 kts | 102° |
| 2026-05-07 08:06 | 35.35277 | 19.33009 | 35065 ft | 572 kts | 102° |
| 2026-05-07 08:06 | 35.33263 | 19.44075 | 35068 ft | 571 kts | 102° |
| 2026-05-07 08:07 | 35.31813 | 19.52008 | 35068 ft | 572 kts | 102° |
| 2026-05-07 08:07 | 35.30075 | 19.61473 | 35070 ft | 573 kts | 102° |
| 2026-05-07 08:08 | 35.28316 | 19.71005 | 35079 ft | 573 kts | 102° |
| 2026-05-07 08:08 | 35.26562 | 19.80470 | 35088 ft | 572 kts | 102° |
| 2026-05-07 08:09 | 35.24786 | 19.90001 | 35085 ft | 573 kts | 102° |
| 2026-05-07 08:09 | 35.23014 | 19.99477 | 35078 ft | 573 kts | 102° |
| 2026-05-07 08:10 | 35.21223 | 20.09005 | 35084 ft | 573 kts | 102° |
| 2026-05-07 08:10 | 35.19436 | 20.18471 | 35082 ft | 573 kts | 102° |
| 2026-05-07 08:11 | 35.17629 | 20.27995 | 35089 ft | 573 kts | 102° |
| 2026-05-07 08:11 | 35.15832 | 20.37429 | 35094 ft | 574 kts | 102° |
| 2026-05-07 08:12 | 35.14009 | 20.46957 | 35088 ft | 574 kts | 102° |
| 2026-05-07 08:12 | 35.12188 | 20.56421 | 35102 ft | 574 kts | 102° |
| 2026-05-07 08:13 | 35.10353 | 20.65928 | 35097 ft | 574 kts | 102° |
| 2026-05-07 08:13 | 35.08520 | 20.75375 | 35109 ft | 574 kts | 102° |
| 2026-05-07 08:14 | 35.06669 | 20.84871 | 35103 ft | 574 kts | 101° |
| 2026-05-07 08:14 | 35.04822 | 20.94311 | 35106 ft | 574 kts | 101° |
| 2026-05-07 08:15 | 35.02954 | 21.03810 | 35109 ft | 574 kts | 101° |
| 2026-05-07 08:15 | 35.01094 | 21.13231 | 35110 ft | 574 kts | 102° |
| 2026-05-07 08:16 | 34.99211 | 21.22730 | 35108 ft | 574 kts | 101° |
| 2026-05-07 08:16 | 34.97332 | 21.32160 | 35112 ft | 575 kts | 101° |
| 2026-05-07 08:17 | 34.95433 | 21.41651 | 35121 ft | 575 kts | 101° |
| 2026-05-07 08:17 | 34.93540 | 21.51074 | 35116 ft | 574 kts | 101° |
| 2026-05-07 08:18 | 34.91625 | 21.60565 | 35119 ft | 574 kts | 102° |
| 2026-05-07 08:18 | 34.89719 | 21.69968 | 35121 ft | 575 kts | 102° |
| 2026-05-07 08:19 | 34.87792 | 21.79436 | 35120 ft | 575 kts | 102° |
| 2026-05-07 08:19 | 34.85857 | 21.88901 | 35122 ft | 575 kts | 101° |
| 2026-05-07 08:20 | 34.83914 | 21.98369 | 35124 ft | 575 kts | 101° |
| 2026-05-07 08:20 | 34.81970 | 22.07799 | 35126 ft | 575 kts | 102° |
| 2026-05-07 08:21 | 34.80019 | 22.17219 | 35130 ft | 576 kts | 101° |
| 2026-05-07 08:21 | 34.78050 | 22.26691 | 35132 ft | 576 kts | 101° |
| 2026-05-07 08:22 | 34.76087 | 22.36097 | 35131 ft | 576 kts | 101° |
| 2026-05-07 08:22 | 34.74114 | 22.45509 | 35132 ft | 576 kts | 101° |
| 2026-05-07 08:23 | 34.72125 | 22.54958 | 35138 ft | 576 kts | 101° |
| 2026-05-07 08:23 | 34.70132 | 22.64388 | 35140 ft | 576 kts | 101° |
| 2026-05-07 08:24 | 34.68128 | 22.73827 | 35139 ft | 576 kts | 101° |
| 2026-05-07 08:24 | 34.66128 | 22.83215 | 35144 ft | 576 kts | 101° |
| 2026-05-07 08:25 | 34.64110 | 22.92646 | 35145 ft | 576 kts | 101° |
| 2026-05-07 08:25 | 34.61613 | 23.01888 | 35148 ft | 581 kts | 112° |
| 2026-05-07 08:26 | 34.56238 | 23.15063 | 35153 ft | 582 kts | 115° |
| 2026-05-07 08:26 | 34.52514 | 23.23716 | 35153 ft | 581 kts | 115° |
| 2026-05-07 08:27 | 34.48769 | 23.32436 | 35150 ft | 581 kts | 115° |
| 2026-05-07 08:27 | 34.45040 | 23.41159 | 35154 ft | 581 kts | 115° |
| 2026-05-07 08:28 | 34.41334 | 23.49827 | 35157 ft | 582 kts | 115° |
| 2026-05-07 08:28 | 34.37595 | 23.58551 | 35155 ft | 582 kts | 115° |
| 2026-05-07 08:29 | 34.33879 | 23.67194 | 35161 ft | 582 kts | 115° |
| 2026-05-07 08:29 | 34.30133 | 23.75883 | 35172 ft | 581 kts | 114° |
| 2026-05-07 08:30 | 34.26381 | 23.84562 | 35162 ft | 581 kts | 115° |
| 2026-05-07 08:30 | 34.22650 | 23.93175 | 35165 ft | 581 kts | 115° |
| 2026-05-07 08:31 | 34.18887 | 24.01838 | 35162 ft | 581 kts | 115° |
| 2026-05-07 08:31 | 34.15145 | 24.10430 | 35164 ft | 580 kts | 114° |
| 2026-05-07 08:32 | 34.11392 | 24.19028 | 35168 ft | 579 kts | 114° |
| 2026-05-07 08:32 | 34.07625 | 24.27637 | 35167 ft | 579 kts | 114° |
| 2026-05-07 08:33 | 34.03866 | 24.36205 | 35167 ft | 579 kts | 115° |
| 2026-05-07 08:33 | 33.99724 | 24.44563 | 35173 ft | 583 kts | 127° |
| 2026-05-07 08:34 | 33.94067 | 24.51524 | 35164 ft | 584 kts | 137° |
| 2026-05-07 08:34 | 33.87984 | 24.58095 | 35170 ft | 586 kts | 139° |
| 2026-05-07 08:35 | 33.81871 | 24.64545 | 35170 ft | 587 kts | 139° |
| 2026-05-07 08:35 | 33.75745 | 24.71050 | 35170 ft | 587 kts | 139° |
| 2026-05-07 08:36 | 33.69625 | 24.77584 | 35170 ft | 587 kts | 138° |
| 2026-05-07 08:36 | 33.63554 | 24.84069 | 35166 ft | 587 kts | 138° |
| 2026-05-07 08:37 | 33.57441 | 24.90583 | 35170 ft | 588 kts | 138° |
| 2026-05-07 08:37 | 33.51325 | 24.97085 | 35170 ft | 588 kts | 138° |
| 2026-05-07 08:38 | 33.45220 | 25.03559 | 35173 ft | 588 kts | 138° |
| 2026-05-07 08:38 | 33.39092 | 25.10046 | 35170 ft | 587 kts | 138° |
| 2026-05-07 08:39 | 33.32978 | 25.16506 | 35173 ft | 587 kts | 138° |
| 2026-05-07 08:39 | 33.26853 | 25.22964 | 35173 ft | 587 kts | 138° |
| 2026-05-07 08:40 | 33.20711 | 25.29429 | 35176 ft | 587 kts | 138° |
| 2026-05-07 08:40 | 33.14612 | 25.35834 | 35177 ft | 586 kts | 138° |
| 2026-05-07 08:41 | 33.08480 | 25.42263 | 35179 ft | 585 kts | 138° |
| 2026-05-07 08:41 | 33.02378 | 25.48648 | 35179 ft | 585 kts | 138° |
| 2026-05-07 08:42 | 32.96245 | 25.55054 | 35179 ft | 586 kts | 138° |
| 2026-05-07 08:42 | 32.90105 | 25.61454 | 35178 ft | 587 kts | 138° |
| 2026-05-07 08:43 | 32.83977 | 25.67826 | 35178 ft | 586 kts | 138° |
| 2026-05-07 08:43 | 32.77871 | 25.74167 | 35179 ft | 585 kts | 138° |
| 2026-05-07 08:44 | 32.71725 | 25.80538 | 35179 ft | 585 kts | 138° |
| 2026-05-07 08:44 | 32.65600 | 25.86875 | 35178 ft | 586 kts | 138° |
| 2026-05-07 08:45 | 32.59431 | 25.93245 | 35178 ft | 586 kts | 138° |
| 2026-05-07 08:45 | 32.53296 | 25.99567 | 35178 ft | 585 kts | 137° |
| 2026-05-07 08:46 | 32.47148 | 26.05891 | 35178 ft | 585 kts | 137° |
| 2026-05-07 08:46 | 32.41032 | 26.12170 | 35178 ft | 584 kts | 137° |
| 2026-05-07 08:47 | 32.34856 | 26.18498 | 35175 ft | 585 kts | 137° |
| 2026-05-07 08:47 | 32.28720 | 26.24775 | 35175 ft | 586 kts | 137° |
| 2026-05-07 08:48 | 32.22539 | 26.31083 | 35175 ft | 584 kts | 137° |
| 2026-05-07 08:48 | 32.16401 | 26.37337 | 35176 ft | 582 kts | 137° |
| 2026-05-07 08:49 | 32.10288 | 26.43557 | 35176 ft | 582 kts | 137° |
| 2026-05-07 08:49 | 32.04133 | 26.49806 | 35175 ft | 583 kts | 137° |
| 2026-05-07 08:50 | 31.98006 | 26.56015 | 35176 ft | 583 kts | 137° |
| 2026-05-07 08:50 | 31.91842 | 26.62250 | 35175 ft | 581 kts | 137° |
| 2026-05-07 08:51 | 31.85720 | 26.68431 | 35176 ft | 580 kts | 137° |
| 2026-05-07 08:51 | 31.79579 | 26.74621 | 35175 ft | 581 kts | 137° |
| 2026-05-07 08:52 | 31.73460 | 26.80777 | 35177 ft | 581 kts | 137° |
| 2026-05-07 08:52 | 31.67289 | 26.86974 | 35184 ft | 581 kts | 137° |
| 2026-05-07 08:53 | 31.61181 | 26.93096 | 35181 ft | 579 kts | 137° |
| 2026-05-07 08:53 | 31.55054 | 26.99227 | 35181 ft | 578 kts | 137° |
| 2026-05-07 08:54 | 31.48968 | 27.05307 | 35184 ft | 578 kts | 137° |
| 2026-05-07 08:54 | 31.43857 | 27.10404 | 35184 ft | 578 kts | 137° |
| 2026-05-07 08:55 | 31.37723 | 27.16511 | 35183 ft | 579 kts | 137° |
| 2026-05-07 08:55 | 31.31858 | 27.22918 | 35212 ft | 568 kts | 124° |
| 2026-05-07 08:56 | 31.27235 | 27.30271 | 35211 ft | 562 kts | 119° |
| 2026-05-07 08:56 | 31.22851 | 27.37842 | 35203 ft | 562 kts | 118° |
| 2026-05-07 08:57 | 31.18523 | 27.45397 | 35193 ft | 562 kts | 118° |
| 2026-05-07 08:57 | 31.14152 | 27.52959 | 35180 ft | 558 kts | 118° |
| 2026-05-07 08:58 | 31.09773 | 27.60420 | 35173 ft | 556 kts | 119° |
| 2026-05-07 08:58 | 31.05357 | 27.67787 | 35161 ft | 556 kts | 119° |
| 2026-05-07 08:59 | 31.00904 | 27.75200 | 35168 ft | 557 kts | 119° |
| 2026-05-07 08:59 | 30.96479 | 27.82578 | 35167 ft | 557 kts | 119° |
| 2026-05-07 09:00 | 30.92034 | 27.89987 | 35167 ft | 557 kts | 119° |
| 2026-05-07 09:00 | 30.87613 | 27.97344 | 35164 ft | 557 kts | 119° |
| 2026-05-07 09:01 | 30.83154 | 28.04748 | 35162 ft | 557 kts | 119° |
| 2026-05-07 09:01 | 30.78725 | 28.12084 | 35157 ft | 555 kts | 119° |
| 2026-05-07 09:02 | 30.74274 | 28.19445 | 35155 ft | 553 kts | 119° |
| 2026-05-07 09:02 | 30.69873 | 28.26714 | 35153 ft | 553 kts | 119° |
| 2026-05-07 09:03 | 30.65439 | 28.34024 | 35151 ft | 553 kts | 119° |
| 2026-05-07 09:03 | 30.60993 | 28.41340 | 35147 ft | 552 kts | 120° |
| 2026-05-07 09:04 | 30.56595 | 28.48557 | 35146 ft | 549 kts | 120° |
| 2026-05-07 09:04 | 30.52180 | 28.55796 | 35148 ft | 549 kts | 120° |
| 2026-05-07 09:05 | 30.47754 | 28.63040 | 35149 ft | 549 kts | 120° |
| 2026-05-07 09:05 | 30.43369 | 28.70205 | 35150 ft | 546 kts | 122° |
| 2026-05-07 09:06 | 30.38970 | 28.77373 | 35149 ft | 542 kts | 122° |
| 2026-05-07 09:06 | 30.34613 | 28.84464 | 35147 ft | 542 kts | 122° |
| 2026-05-07 09:07 | 30.30228 | 28.91589 | 35137 ft | 542 kts | 122° |
| 2026-05-07 09:07 | 30.25863 | 28.98670 | 35147 ft | 539 kts | 123° |
| 2026-05-07 09:08 | 30.21541 | 29.05663 | 35128 ft | 534 kts | 123° |
| 2026-05-07 09:08 | 30.17221 | 29.12651 | 35132 ft | 533 kts | 123° |
| 2026-05-07 09:09 | 30.12902 | 29.19651 | 35127 ft | 534 kts | 123° |
| 2026-05-07 09:09 | 30.08647 | 29.26637 | 35131 ft | 533 kts | 123° |
| 2026-05-07 09:10 | 30.04459 | 29.33604 | 35128 ft | 528 kts | 123° |
| 2026-05-07 09:10 | 30.00250 | 29.40589 | 35131 ft | 527 kts | 123° |
| 2026-05-07 09:11 | 29.96069 | 29.47495 | 35127 ft | 527 kts | 123° |
| 2026-05-07 09:11 | 29.91850 | 29.54445 | 35141 ft | 527 kts | 124° |
| 2026-05-07 09:12 | 29.87671 | 29.61315 | 35130 ft | 524 kts | 124° |
| 2026-05-07 09:12 | 29.83478 | 29.68196 | 35131 ft | 523 kts | 124° |
| 2026-05-07 09:13 | 29.79293 | 29.75056 | 35129 ft | 523 kts | 124° |
| 2026-05-07 09:13 | 29.75124 | 29.81878 | 35130 ft | 523 kts | 124° |
| 2026-05-07 09:14 | 29.70929 | 29.88732 | 35131 ft | 521 kts | 124° |
| 2026-05-07 09:14 | 29.66778 | 29.95499 | 35129 ft | 519 kts | 124° |
| 2026-05-07 09:15 | 29.62618 | 30.02270 | 35130 ft | 519 kts | 124° |
| 2026-05-07 09:15 | 29.58430 | 30.09076 | 35125 ft | 520 kts | 125° |
| 2026-05-07 09:16 | 29.54276 | 30.15817 | 35117 ft | 518 kts | 125° |
| 2026-05-07 09:16 | 29.50108 | 30.22568 | 35132 ft | 515 kts | 125° |
| 2026-05-07 09:17 | 29.45956 | 30.29283 | 35130 ft | 515 kts | 125° |
| 2026-05-07 09:17 | 29.41821 | 30.35959 | 35114 ft | 516 kts | 125° |
| 2026-05-07 09:18 | 29.37235 | 30.42290 | 35126 ft | 515 kts | 133° |
| 2026-05-07 09:18 | 29.32336 | 30.48227 | 35125 ft | 514 kts | 134° |
| 2026-05-07 09:19 | 29.27359 | 30.54126 | 35124 ft | 513 kts | 134° |
| 2026-05-07 09:19 | 29.22378 | 30.60028 | 35125 ft | 513 kts | 134° |
| 2026-05-07 09:20 | 29.17446 | 30.65883 | 35126 ft | 514 kts | 134° |
| 2026-05-07 09:20 | 29.12475 | 30.71783 | 35110 ft | 514 kts | 134° |
| 2026-05-07 09:21 | 29.07538 | 30.77638 | 35106 ft | 514 kts | 134° |
| 2026-05-07 09:21 | 29.02563 | 30.83527 | 35115 ft | 514 kts | 134° |
| 2026-05-07 09:22 | 28.97609 | 30.89383 | 35119 ft | 515 kts | 134° |
| 2026-05-07 09:22 | 28.92600 | 30.95295 | 35102 ft | 515 kts | 134° |
| 2026-05-07 09:23 | 28.87646 | 31.01133 | 35111 ft | 512 kts | 135° |
| 2026-05-07 09:23 | 28.82713 | 31.06937 | 35112 ft | 511 kts | 135° |
| 2026-05-07 09:24 | 28.77738 | 31.12783 | 35105 ft | 511 kts | 135° |
| 2026-05-07 09:24 | 28.72772 | 31.18609 | 35105 ft | 511 kts | 135° |
| 2026-05-07 09:25 | 28.67858 | 31.24412 | 35095 ft | 512 kts | 134° |
| 2026-05-07 09:25 | 28.63081 | 31.30433 | 35099 ft | 511 kts | 132° |
| 2026-05-07 09:26 | 28.58357 | 31.36481 | 35100 ft | 510 kts | 133° |
| 2026-05-07 09:26 | 28.53622 | 31.42479 | 35102 ft | 510 kts | 133° |
| 2026-05-07 09:27 | 28.48875 | 31.48445 | 35101 ft | 510 kts | 133° |
| 2026-05-07 09:28 | 28.41742 | 31.57374 | 35098 ft | 509 kts | 133° |
| 2026-05-07 09:28 | 28.36972 | 31.63338 | 35095 ft | 508 kts | 133° |
| 2026-05-07 09:29 | 28.32238 | 31.69247 | 35093 ft | 508 kts | 133° |
| 2026-05-07 09:29 | 28.27472 | 31.75190 | 35086 ft | 510 kts | 133° |
| 2026-05-07 09:30 | 28.22685 | 31.81151 | 35089 ft | 510 kts | 133° |
| 2026-05-07 09:30 | 28.17921 | 31.87073 | 35087 ft | 509 kts | 133° |
| 2026-05-07 09:31 | 28.13131 | 31.93019 | 35083 ft | 509 kts | 133° |
| 2026-05-07 09:31 | 28.08364 | 31.98930 | 35078 ft | 509 kts | 134° |
| 2026-05-07 09:32 | 28.03736 | 32.04973 | 35076 ft | 510 kts | 126° |
| 2026-05-07 09:32 | 28.00072 | 32.11838 | 35058 ft | 511 kts | 120° |
| 2026-05-07 09:33 | 27.96659 | 32.18898 | 35042 ft | 511 kts | 119° |
| 2026-05-07 09:33 | 27.93299 | 32.25948 | 35041 ft | 511 kts | 119° |
| 2026-05-07 09:34 | 27.89898 | 32.33035 | 35012 ft | 511 kts | 120° |
| 2026-05-07 09:34 | 27.86488 | 32.40092 | 35013 ft | 514 kts | 120° |
| 2026-05-07 09:35 | 27.83062 | 32.47155 | 35002 ft | 515 kts | 120° |
| 2026-05-07 09:35 | 27.79618 | 32.54246 | 34998 ft | 514 kts | 120° |
| 2026-05-07 09:36 | 27.76181 | 32.61312 | 35001 ft | 515 kts | 120° |
| 2026-05-07 09:36 | 27.72717 | 32.68424 | 34995 ft | 515 kts | 120° |
| 2026-05-07 09:37 | 27.69275 | 32.75476 | 34994 ft | 515 kts | 120° |
| 2026-05-07 09:37 | 27.65801 | 32.82583 | 34988 ft | 515 kts | 120° |
| 2026-05-07 09:38 | 27.62351 | 32.89629 | 34976 ft | 515 kts | 121° |
| 2026-05-07 09:38 | 27.58886 | 32.96694 | 34988 ft | 516 kts | 121° |
| 2026-05-07 09:39 | 27.55398 | 33.03792 | 34988 ft | 517 kts | 121° |
| 2026-05-07 09:39 | 27.51909 | 33.10884 | 34985 ft | 516 kts | 121° |
| 2026-05-07 09:40 | 27.48437 | 33.17930 | 34985 ft | 517 kts | 121° |
| 2026-05-07 09:40 | 27.44954 | 33.24985 | 34984 ft | 518 kts | 121° |
| 2026-05-07 09:41 | 27.41440 | 33.32088 | 34979 ft | 518 kts | 121° |
| 2026-05-07 09:41 | 27.37949 | 33.39138 | 34982 ft | 518 kts | 121° |
| 2026-05-07 09:42 | 27.34431 | 33.46239 | 34979 ft | 518 kts | 122° |
| 2026-05-07 09:42 | 27.30920 | 33.53296 | 34982 ft | 519 kts | 122° |
| 2026-05-07 09:43 | 27.27380 | 33.60399 | 34979 ft | 519 kts | 122° |
| 2026-05-07 09:43 | 27.23857 | 33.67461 | 34979 ft | 519 kts | 122° |
| 2026-05-07 09:44 | 27.20908 | 33.73367 | 34979 ft | 519 kts | 122° |
| 2026-05-07 09:44 | 27.17546 | 33.80519 | 34996 ft | 522 kts | 116° |
| 2026-05-07 09:45 | 27.14740 | 33.88078 | 34993 ft | 523 kts | 115° |
| 2026-05-07 09:45 | 27.12044 | 33.95680 | 34976 ft | 523 kts | 115° |
| 2026-05-07 09:46 | 27.09364 | 34.03269 | 34984 ft | 525 kts | 115° |
| 2026-05-07 09:46 | 27.06668 | 34.10849 | 34976 ft | 525 kts | 115° |
| 2026-05-07 09:47 | 27.03955 | 34.18436 | 34967 ft | 525 kts | 116° |
| 2026-05-07 09:47 | 27.01227 | 34.26057 | 34969 ft | 525 kts | 116° |
| 2026-05-07 09:48 | 26.98504 | 34.33638 | 34969 ft | 526 kts | 116° |
| 2026-05-07 09:48 | 26.95764 | 34.41241 | 34968 ft | 526 kts | 116° |
| 2026-05-07 09:49 | 26.93024 | 34.48839 | 34960 ft | 526 kts | 117° |
| 2026-05-07 09:49 | 26.90270 | 34.56460 | 34966 ft | 527 kts | 117° |
| 2026-05-07 09:50 | 26.87526 | 34.64037 | 34965 ft | 527 kts | 117° |
| 2026-05-07 09:50 | 26.84777 | 34.71616 | 34966 ft | 526 kts | 117° |
| 2026-05-07 09:51 | 26.82011 | 34.79227 | 34958 ft | 527 kts | 118° |
| 2026-05-07 09:51 | 26.79253 | 34.86799 | 34959 ft | 527 kts | 118° |
| 2026-05-07 09:52 | 26.76477 | 34.94409 | 34959 ft | 527 kts | 118° |
| 2026-05-07 09:52 | 26.73719 | 35.01971 | 34952 ft | 527 kts | 119° |
| 2026-05-07 09:53 | 26.70936 | 35.09570 | 34953 ft | 527 kts | 119° |
| 2026-05-07 09:53 | 26.68141 | 35.17190 | 34956 ft | 527 kts | 119° |
| 2026-05-07 09:54 | 26.65366 | 35.24741 | 34944 ft | 527 kts | 119° |
| 2026-05-07 09:54 | 26.62584 | 35.32300 | 34950 ft | 527 kts | 119° |
| 2026-05-07 09:55 | 26.59788 | 35.39881 | 34946 ft | 527 kts | 119° |
| 2026-05-07 09:55 | 26.56997 | 35.47435 | 34943 ft | 527 kts | 119° |
| 2026-05-07 09:56 | 26.54162 | 35.54996 | 34941 ft | 527 kts | 120° |
| 2026-05-07 09:56 | 26.51274 | 35.62518 | 34942 ft | 526 kts | 120° |
| 2026-05-07 09:57 | 26.48397 | 35.69999 | 34942 ft | 526 kts | 120° |
| 2026-05-07 09:57 | 26.45503 | 35.77540 | 34901 ft | 526 kts | 120° |
| 2026-05-07 09:58 | 26.42635 | 35.85012 | 34940 ft | 526 kts | 120° |
| 2026-05-07 09:58 | 26.39741 | 35.92538 | 34938 ft | 526 kts | 120° |
| 2026-05-07 09:59 | 26.36848 | 36.00048 | 34936 ft | 526 kts | 120° |
| 2026-05-07 09:59 | 26.33963 | 36.07522 | 34933 ft | 526 kts | 120° |
| 2026-05-07 10:00 | 26.31070 | 36.15002 | 34934 ft | 526 kts | 121° |
| 2026-05-07 10:00 | 26.28160 | 36.22516 | 34937 ft | 526 kts | 121° |
| 2026-05-07 10:01 | 26.25272 | 36.29956 | 34935 ft | 525 kts | 121° |
| 2026-05-07 10:01 | 26.22369 | 36.37425 | 34936 ft | 525 kts | 121° |
| 2026-05-07 10:02 | 26.19590 | 36.44935 | 34947 ft | 531 kts | 114° |
| 2026-05-07 10:02 | 26.18487 | 36.53199 | 34937 ft | 550 kts | 93° |
| 2026-05-07 10:03 | 26.19098 | 36.61703 | 34932 ft | 555 kts | 88° |
| 2026-05-07 10:03 | 26.20014 | 36.70261 | 34928 ft | 555 kts | 88° |
| 2026-05-07 10:04 | 26.20927 | 36.78765 | 34932 ft | 555 kts | 88° |
| 2026-05-07 10:04 | 26.21797 | 36.87331 | 34932 ft | 555 kts | 88° |
| 2026-05-07 10:05 | 26.22635 | 36.95851 | 34938 ft | 555 kts | 88° |
| 2026-05-07 10:05 | 26.23468 | 37.04411 | 34938 ft | 557 kts | 89° |
| 2026-05-07 10:06 | 26.24298 | 37.12975 | 34937 ft | 558 kts | 89° |
| 2026-05-07 10:06 | 26.25130 | 37.21588 | 34955 ft | 558 kts | 89° |
| 2026-05-07 10:07 | 26.25959 | 37.30174 | 34973 ft | 560 kts | 89° |
| 2026-05-07 10:07 | 26.26778 | 37.38770 | 34962 ft | 558 kts | 89° |
| 2026-05-07 10:08 | 26.27593 | 37.47393 | 34963 ft | 558 kts | 89° |
| 2026-05-07 10:08 | 26.28399 | 37.55970 | 34964 ft | 560 kts | 89° |
| 2026-05-07 10:09 | 26.29212 | 37.64663 | 34958 ft | 561 kts | 90° |
| 2026-05-07 10:09 | 26.30010 | 37.73283 | 34935 ft | 562 kts | 89° |
| 2026-05-07 10:10 | 26.30816 | 37.81986 | 34957 ft | 563 kts | 89° |
| 2026-05-07 10:10 | 26.31612 | 37.90618 | 34963 ft | 563 kts | 90° |
| 2026-05-07 10:11 | 26.32406 | 37.99310 | 34964 ft | 562 kts | 90° |
| 2026-05-07 10:11 | 26.33190 | 38.07960 | 34961 ft | 563 kts | 90° |
| 2026-05-07 10:12 | 26.33976 | 38.16666 | 34965 ft | 563 kts | 90° |
| 2026-05-07 10:12 | 26.34746 | 38.25344 | 34961 ft | 565 kts | 90° |
| 2026-05-07 10:13 | 26.35527 | 38.34090 | 34962 ft | 566 kts | 90° |
| 2026-05-07 10:13 | 26.36297 | 38.42822 | 34973 ft | 565 kts | 90° |
| 2026-05-07 10:14 | 26.37055 | 38.51504 | 34992 ft | 565 kts | 90° |
| 2026-05-07 10:14 | 26.37814 | 38.60239 | 34983 ft | 564 kts | 90° |
| 2026-05-07 10:15 | 26.38563 | 38.68932 | 34978 ft | 564 kts | 90° |
| 2026-05-07 10:15 | 26.39303 | 38.77597 | 34989 ft | 564 kts | 90° |
| 2026-05-07 10:16 | 26.40043 | 38.86318 | 34992 ft | 564 kts | 90° |
| 2026-05-07 10:16 | 26.40780 | 38.95055 | 34983 ft | 564 kts | 90° |
| 2026-05-07 10:17 | 26.41507 | 39.03740 | 34986 ft | 564 kts | 90° |
| 2026-05-07 10:17 | 26.42234 | 39.12473 | 34966 ft | 564 kts | 90° |
| 2026-05-07 10:18 | 26.42950 | 39.21150 | 34982 ft | 564 kts | 90° |
| 2026-05-07 10:18 | 26.43650 | 39.29843 | 34982 ft | 563 kts | 91° |
| 2026-05-07 10:19 | 26.44117 | 39.38578 | 34979 ft | 562 kts | 93° |
| 2026-05-07 10:19 | 26.44487 | 39.47267 | 34982 ft | 562 kts | 93° |
| 2026-05-07 10:20 | 26.44883 | 39.55997 | 34983 ft | 562 kts | 93° |
| 2026-05-07 10:20 | 26.45302 | 39.64680 | 34979 ft | 562 kts | 92° |
| 2026-05-07 10:21 | 26.45728 | 39.73417 | 34997 ft | 562 kts | 93° |
| 2026-05-07 10:21 | 26.46146 | 39.82099 | 34971 ft | 562 kts | 93° |
| 2026-05-07 10:22 | 26.46558 | 39.90830 | 34990 ft | 562 kts | 93° |
| 2026-05-07 10:22 | 26.46961 | 39.99515 | 34990 ft | 562 kts | 93° |
| 2026-05-07 10:23 | 26.47359 | 40.08192 | 34981 ft | 561 kts | 93° |
| 2026-05-07 10:23 | 26.47755 | 40.16916 | 34983 ft | 561 kts | 93° |
| 2026-05-07 10:24 | 26.48145 | 40.25621 | 34950 ft | 560 kts | 93° |
| 2026-05-07 10:24 | 26.48525 | 40.34260 | 34986 ft | 558 kts | 93° |
| 2026-05-07 10:25 | 26.48900 | 40.42888 | 34967 ft | 559 kts | 93° |
| 2026-05-07 10:25 | 26.49273 | 40.51586 | 34960 ft | 558 kts | 93° |
| 2026-05-07 10:26 | 26.49639 | 40.60195 | 34975 ft | 557 kts | 93° |
| 2026-05-07 10:26 | 26.49999 | 40.68827 | 34971 ft | 556 kts | 93° |
| 2026-05-07 10:27 | 26.50351 | 40.77491 | 34974 ft | 556 kts | 93° |
| 2026-05-07 10:27 | 26.50696 | 40.86073 | 34974 ft | 557 kts | 93° |
| 2026-05-07 10:28 | 26.51039 | 40.94725 | 34989 ft | 556 kts | 94° |
| 2026-05-07 10:28 | 26.51337 | 41.03341 | 34984 ft | 554 kts | 97° |
| 2026-05-07 10:29 | 26.50924 | 41.11891 | 34995 ft | 550 kts | 101° |
| 2026-05-07 10:29 | 26.50340 | 41.20361 | 34990 ft | 548 kts | 102° |
| 2026-05-07 10:30 | 26.49412 | 41.33067 | 34989 ft | 548 kts | 102° |
| 2026-05-07 10:30 | 26.48796 | 41.41570 | 34993 ft | 548 kts | 101° |
| 2026-05-07 10:31 | 26.48186 | 41.50014 | 34990 ft | 548 kts | 101° |
| 2026-05-07 10:31 | 26.47568 | 41.58506 | 34982 ft | 548 kts | 101° |
| 2026-05-07 10:32 | 26.46948 | 41.66937 | 34997 ft | 548 kts | 101° |
| 2026-05-07 10:32 | 26.46319 | 41.75447 | 34996 ft | 548 kts | 101° |
| 2026-05-07 10:33 | 26.45688 | 41.83901 | 34996 ft | 549 kts | 101° |
| 2026-05-07 10:33 | 26.45046 | 41.92414 | 34998 ft | 550 kts | 101° |
| 2026-05-07 10:34 | 26.44404 | 42.00885 | 34994 ft | 550 kts | 102° |
| 2026-05-07 10:34 | 26.43860 | 42.07993 | 35004 ft | 552 kts | 102° |
| 2026-05-07 10:35 | 26.43202 | 42.16538 | 35006 ft | 552 kts | 102° |
| 2026-05-07 10:35 | 26.42541 | 42.25067 | 35008 ft | 553 kts | 102° |
| 2026-05-07 10:36 | 26.41873 | 42.33616 | 35015 ft | 553 kts | 102° |
| 2026-05-07 10:36 | 26.41204 | 42.42118 | 35004 ft | 553 kts | 102° |
| 2026-05-07 10:37 | 26.40523 | 42.50699 | 35025 ft | 553 kts | 102° |
| 2026-05-07 10:37 | 26.39843 | 42.59212 | 35019 ft | 553 kts | 102° |
| 2026-05-07 10:38 | 26.39153 | 42.67770 | 35022 ft | 553 kts | 102° |
| 2026-05-07 10:38 | 26.38462 | 42.76275 | 35028 ft | 553 kts | 102° |
| 2026-05-07 10:39 | 26.37762 | 42.84833 | 35021 ft | 553 kts | 102° |
| 2026-05-07 10:39 | 26.37062 | 42.93343 | 35018 ft | 553 kts | 102° |
| 2026-05-07 10:40 | 26.36351 | 43.01908 | 35021 ft | 553 kts | 102° |
| 2026-05-07 10:40 | 26.35639 | 43.10471 | 35017 ft | 555 kts | 102° |
| 2026-05-07 10:41 | 26.34917 | 43.19015 | 35007 ft | 555 kts | 102° |
| 2026-05-07 10:41 | 26.34188 | 43.27590 | 35025 ft | 555 kts | 102° |
| 2026-05-07 10:42 | 26.33461 | 43.36104 | 35007 ft | 552 kts | 102° |
| 2026-05-07 10:42 | 26.32726 | 43.44650 | 34978 ft | 552 kts | 102° |
| 2026-05-07 10:43 | 26.31987 | 43.53163 | 34974 ft | 553 kts | 102° |
| 2026-05-07 10:43 | 26.31247 | 43.61645 | 34974 ft | 552 kts | 102° |
| 2026-05-07 10:44 | 26.30494 | 43.70193 | 34966 ft | 554 kts | 102° |
| 2026-05-07 10:44 | 26.29887 | 43.78735 | 34969 ft | 559 kts | 96° |
| 2026-05-07 10:45 | 26.29860 | 43.87421 | 34964 ft | 562 kts | 95° |
| 2026-05-07 10:45 | 26.29938 | 43.96175 | 34966 ft | 564 kts | 95° |
| 2026-05-07 10:46 | 26.30027 | 44.04877 | 34958 ft | 563 kts | 95° |
| 2026-05-07 10:46 | 26.30098 | 44.13639 | 34968 ft | 564 kts | 95° |
| 2026-05-07 10:47 | 26.30155 | 44.22353 | 34966 ft | 565 kts | 95° |
| 2026-05-07 10:47 | 26.30206 | 44.31093 | 34959 ft | 565 kts | 95° |
| 2026-05-07 10:48 | 26.30252 | 44.39890 | 34964 ft | 565 kts | 95° |
| 2026-05-07 10:48 | 26.30293 | 44.48609 | 34958 ft | 566 kts | 95° |
| 2026-05-07 10:49 | 26.30333 | 44.57423 | 34963 ft | 565 kts | 95° |
| 2026-05-07 10:49 | 26.30365 | 44.66153 | 34966 ft | 565 kts | 95° |
| 2026-05-07 10:50 | 26.30388 | 44.74927 | 34969 ft | 566 kts | 95° |
| 2026-05-07 10:50 | 26.30408 | 44.83667 | 34962 ft | 566 kts | 95° |
| 2026-05-07 10:51 | 26.30425 | 44.92457 | 34965 ft | 566 kts | 95° |
| 2026-05-07 10:51 | 26.30436 | 45.01186 | 34960 ft | 566 kts | 95° |
| 2026-05-07 10:52 | 26.30436 | 45.10000 | 34971 ft | 567 kts | 95° |
| 2026-05-07 10:52 | 26.30431 | 45.18745 | 34974 ft | 567 kts | 95° |
| 2026-05-07 10:53 | 26.30423 | 45.27556 | 34970 ft | 567 kts | 95° |
| 2026-05-07 10:53 | 26.30413 | 45.36298 | 34971 ft | 566 kts | 95° |
| 2026-05-07 10:54 | 26.30392 | 45.45051 | 34970 ft | 566 kts | 96° |
| 2026-05-07 10:54 | 26.30366 | 45.53859 | 34968 ft | 567 kts | 95° |
| 2026-05-07 10:55 | 26.30337 | 45.62593 | 34968 ft | 566 kts | 95° |
| 2026-05-07 10:55 | 26.30304 | 45.71378 | 34966 ft | 565 kts | 96° |
| 2026-05-07 10:56 | 26.30263 | 45.80163 | 34968 ft | 565 kts | 96° |
| 2026-05-07 10:56 | 26.30218 | 45.88880 | 34972 ft | 565 kts | 96° |
| 2026-05-07 10:57 | 26.30168 | 45.97665 | 34967 ft | 565 kts | 96° |
| 2026-05-07 10:57 | 26.30111 | 46.06390 | 34954 ft | 565 kts | 95° |
| 2026-05-07 10:58 | 26.30050 | 46.15173 | 34966 ft | 565 kts | 95° |
| 2026-05-07 10:58 | 26.29984 | 46.23896 | 34974 ft | 565 kts | 95° |
| 2026-05-07 10:59 | 26.29916 | 46.32677 | 34978 ft | 565 kts | 95° |
| 2026-05-07 10:59 | 26.29841 | 46.41414 | 34976 ft | 565 kts | 96° |
| 2026-05-07 11:00 | 26.29759 | 46.50127 | 34978 ft | 565 kts | 96° |
| 2026-05-07 11:00 | 26.29675 | 46.58904 | 34969 ft | 565 kts | 96° |
| 2026-05-07 11:01 | 26.29577 | 46.67681 | 34972 ft | 564 kts | 96° |
| 2026-05-07 11:01 | 26.29477 | 46.76382 | 34972 ft | 564 kts | 96° |
| 2026-05-07 11:02 | 26.29371 | 46.85145 | 34973 ft | 564 kts | 96° |
| 2026-05-07 11:02 | 26.29262 | 46.93839 | 34975 ft | 564 kts | 96° |
| 2026-05-07 11:03 | 26.29147 | 47.02601 | 34969 ft | 564 kts | 96° |
| 2026-05-07 11:03 | 26.29027 | 47.11302 | 34969 ft | 564 kts | 96° |
| 2026-05-07 11:04 | 26.28902 | 47.20057 | 34964 ft | 564 kts | 96° |
| 2026-05-07 11:04 | 26.28761 | 47.28766 | 34962 ft | 564 kts | 96° |
| 2026-05-07 11:05 | 26.28599 | 47.37515 | 34961 ft | 564 kts | 96° |
| 2026-05-07 11:05 | 26.28433 | 47.46209 | 34954 ft | 563 kts | 96° |
| 2026-05-07 11:06 | 26.28264 | 47.54964 | 34955 ft | 563 kts | 96° |
| 2026-05-07 11:06 | 26.28091 | 47.63651 | 34944 ft | 563 kts | 96° |
| 2026-05-07 11:07 | 26.28668 | 47.72368 | 34948 ft | 571 kts | 83° |
| 2026-05-07 11:07 | 26.30294 | 47.81081 | 34930 ft | 572 kts | 80° |
| 2026-05-07 11:08 | 26.32088 | 47.89715 | 34924 ft | 573 kts | 79° |
| 2026-05-07 11:08 | 26.33883 | 47.98330 | 34924 ft | 571 kts | 80° |
| 2026-05-07 11:09 | 26.35641 | 48.06930 | 34917 ft | 571 kts | 80° |
| 2026-05-07 11:09 | 26.37396 | 48.15592 | 34910 ft | 571 kts | 80° |
| 2026-05-07 11:10 | 26.39128 | 48.24205 | 34902 ft | 571 kts | 80° |
| 2026-05-07 11:10 | 26.40868 | 48.32873 | 34901 ft | 571 kts | 80° |
| 2026-05-07 11:11 | 26.42605 | 48.41541 | 34897 ft | 571 kts | 80° |
| 2026-05-07 11:11 | 26.44327 | 48.50162 | 34895 ft | 571 kts | 80° |
| 2026-05-07 11:12 | 26.46054 | 48.58841 | 34889 ft | 571 kts | 80° |
| 2026-05-07 11:12 | 26.47455 | 48.67506 | 34888 ft | 567 kts | 90° |
| 2026-05-07 11:13 | 26.47842 | 48.76249 | 34888 ft | 565 kts | 92° |
| 2026-05-07 11:13 | 26.48036 | 48.85042 | 34882 ft | 564 kts | 92° |
| 2026-05-07 11:14 | 26.48193 | 48.93741 | 34876 ft | 564 kts | 92° |
| 2026-05-07 11:14 | 26.48365 | 49.02518 | 34866 ft | 564 kts | 92° |
| 2026-05-07 11:15 | 26.48545 | 49.11277 | 34870 ft | 563 kts | 92° |
| 2026-05-07 11:15 | 26.48723 | 49.19968 | 34872 ft | 562 kts | 92° |
| 2026-05-07 11:16 | 26.48736 | 49.28696 | 34868 ft | 558 kts | 99° |
| 2026-05-07 11:16 | 26.47074 | 49.36960 | 34865 ft | 545 kts | 115° |
| 2026-05-07 11:17 | 26.44547 | 49.44959 | 34858 ft | 545 kts | 116° |
| 2026-05-07 11:17 | 26.41986 | 49.52912 | 34843 ft | 545 kts | 115° |
| 2026-05-07 11:18 | 26.39412 | 49.60881 | 34857 ft | 545 kts | 115° |
| 2026-05-07 11:18 | 26.36851 | 49.68794 | 34833 ft | 545 kts | 115° |
| 2026-05-07 11:19 | 26.34271 | 49.76750 | 34829 ft | 545 kts | 115° |
| 2026-05-07 11:19 | 26.31699 | 49.84663 | 34831 ft | 545 kts | 115° |
| 2026-05-07 11:20 | 26.29113 | 49.92602 | 34832 ft | 544 kts | 115° |
| 2026-05-07 11:20 | 26.26525 | 50.00530 | 34831 ft | 543 kts | 115° |
| 2026-05-07 11:21 | 26.23950 | 50.08401 | 34829 ft | 543 kts | 115° |
| 2026-05-07 11:21 | 26.21357 | 50.16310 | 34828 ft | 543 kts | 115° |
| 2026-05-07 11:22 | 26.18987 | 50.23524 | 34821 ft | 543 kts | 115° |
| 2026-05-07 11:22 | 26.16398 | 50.31389 | 34832 ft | 544 kts | 115° |
| 2026-05-07 11:23 | 26.13787 | 50.39306 | 34844 ft | 544 kts | 115° |
| 2026-05-07 11:23 | 26.11175 | 50.47207 | 34846 ft | 544 kts | 115° |
| 2026-05-07 11:24 | 26.08571 | 50.55070 | 34848 ft | 544 kts | 115° |
| 2026-05-07 11:24 | 26.05948 | 50.62972 | 34850 ft | 544 kts | 115° |
| 2026-05-07 11:25 | 26.03333 | 50.70832 | 34850 ft | 544 kts | 115° |
| 2026-05-07 11:25 | 26.00696 | 50.78746 | 34843 ft | 544 kts | 115° |
| 2026-05-07 11:26 | 25.98073 | 50.86598 | 34842 ft | 544 kts | 115° |
| 2026-05-07 11:26 | 25.95872 | 50.93177 | 34841 ft | 544 kts | 115° |
| 2026-05-07 11:27 | 25.92796 | 51.02349 | 34840 ft | 544 kts | 115° |
| 2026-05-07 11:27 | 25.90593 | 51.08905 | 34840 ft | 543 kts | 115° |
| 2026-05-07 11:28 | 25.87959 | 51.16731 | 34840 ft | 543 kts | 115° |
| 2026-05-07 11:28 | 25.85305 | 51.24599 | 34840 ft | 543 kts | 115° |
| 2026-05-07 11:29 | 25.83985 | 51.28512 | 34526 ft | 533 kts | 115° |
| 2026-05-07 11:29 | 25.82707 | 51.32302 | 33557 ft | 524 kts | 115° |
| 2026-05-07 11:29 | 25.81418 | 51.36107 | 32015 ft | 524 kts | 115° |
| 2026-05-07 11:29 | 25.80130 | 51.39902 | 30524 ft | 525 kts | 115° |
| 2026-05-07 11:30 | 25.78854 | 51.43660 | 28904 ft | 524 kts | 114° |
| 2026-05-07 11:30 | 25.77569 | 51.47439 | 27289 ft | 524 kts | 114° |
| 2026-05-07 11:30 | 25.76281 | 51.51227 | 26254 ft | 521 kts | 113° |
| 2026-05-07 11:30 | 25.75008 | 51.54972 | 25440 ft | 512 kts | 113° |
| 2026-05-07 11:31 | 25.73755 | 51.58654 | 24639 ft | 504 kts | 112° |
| 2026-05-07 11:31 | 25.72536 | 51.62229 | 23872 ft | 495 kts | 112° |
| 2026-05-07 11:31 | 25.71326 | 51.65777 | 23044 ft | 487 kts | 112° |
| 2026-05-07 11:31 | 25.70131 | 51.69278 | 22123 ft | 479 kts | 112° |
| 2026-05-07 11:32 | 25.67829 | 51.76014 | 20570 ft | 459 kts | 112° |
| 2026-05-07 11:32 | 25.66707 | 51.79293 | 19834 ft | 449 kts | 112° |
| 2026-05-07 11:32 | 25.65612 | 51.82490 | 19185 ft | 438 kts | 112° |
| 2026-05-07 11:33 | 25.64540 | 51.85619 | 18558 ft | 429 kts | 112° |
| 2026-05-07 11:33 | 25.63426 | 51.88680 | 17909 ft | 424 kts | 117° |
| 2026-05-07 11:33 | 25.61771 | 51.91292 | 17295 ft | 415 kts | 135° |
| 2026-05-07 11:33 | 25.59474 | 51.93171 | 16690 ft | 409 kts | 153° |
| 2026-05-07 11:34 | 25.56773 | 51.94107 | 16090 ft | 405 kts | 172° |
| 2026-05-07 11:34 | 25.54017 | 51.93998 | 15551 ft | 400 kts | 192° |
| 2026-05-07 11:34 | 25.51452 | 51.92861 | 15015 ft | 397 kts | 211° |
| 2026-05-07 11:34 | 25.49417 | 51.90827 | 14508 ft | 393 kts | 232° |
| 2026-05-07 11:35 | 25.48171 | 51.88155 | 14006 ft | 390 kts | 253° |
| 2026-05-07 11:35 | 25.47872 | 51.85242 | 13599 ft | 386 kts | 272° |
| 2026-05-07 11:35 | 25.47774 | 51.82251 | 13137 ft | 397 kts | 258° |
| 2026-05-07 11:35 | 25.46709 | 51.79395 | 13075 ft | 407 kts | 237° |
| 2026-05-07 11:36 | 25.44821 | 51.77063 | 12895 ft | 405 kts | 218° |
| 2026-05-07 11:36 | 25.42416 | 51.75598 | 12729 ft | 393 kts | 200° |
| 2026-05-07 11:36 | 25.39919 | 51.74522 | 12563 ft | 375 kts | 203° |
| 2026-05-07 11:36 | 25.37580 | 51.73349 | 12346 ft | 361 kts | 204° |
| 2026-05-07 11:37 | 25.35391 | 51.72230 | 12059 ft | 338 kts | 204° |
| 2026-05-07 11:37 | 25.33302 | 51.71180 | 11609 ft | 320 kts | 203° |
| 2026-05-07 11:37 | 25.31189 | 51.70558 | 10865 ft | 312 kts | 181° |
| 2026-05-07 11:37 | 25.29107 | 51.70961 | 10118 ft | 306 kts | 159° |
| 2026-05-07 11:38 | 25.27124 | 51.71803 | 9332 ft | 303 kts | 156° |
| 2026-05-07 11:38 | 25.25177 | 51.72687 | 8553 ft | 300 kts | 156° |
| 2026-05-07 11:38 | 25.23258 | 51.73553 | 7808 ft | 296 kts | 156° |
| 2026-05-07 11:38 | 25.21356 | 51.74408 | 7068 ft | 292 kts | 156° |
| 2026-05-07 11:39 | 25.19517 | 51.75221 | 6617 ft | 283 kts | 156° |
| 2026-05-07 11:39 | 25.17677 | 51.76036 | 6295 ft | 286 kts | 156° |
| 2026-05-07 11:39 | 25.15831 | 51.76849 | 5925 ft | 284 kts | 156° |
| 2026-05-07 11:39 | 25.14023 | 51.77640 | 5732 ft | 273 kts | 157° |
| 2026-05-07 11:40 | 25.12323 | 51.78388 | 5616 ft | 259 kts | 157° |
| 2026-05-07 11:40 | 25.10683 | 51.79104 | 5494 ft | 248 kts | 157° |
| 2026-05-07 11:40 | 25.09056 | 51.79730 | 5231 ft | 246 kts | 166° |
| 2026-05-07 11:40 | 25.07351 | 51.79693 | 4968 ft | 248 kts | 196° |
| 2026-05-07 11:41 | 25.05929 | 51.78697 | 4700 ft | 248 kts | 228° |
| 2026-05-07 11:41 | 25.05069 | 51.77052 | 4422 ft | 248 kts | 246° |
| 2026-05-07 11:41 | 25.04471 | 51.75267 | 4161 ft | 247 kts | 255° |
| 2026-05-07 11:41 | 25.04571 | 51.73410 | 3914 ft | 246 kts | 293° |
| 2026-05-07 11:42 | 25.05560 | 51.71926 | 3657 ft | 244 kts | 317° |
| 2026-05-07 11:42 | 25.06939 | 51.70886 | 3489 ft | 235 kts | 334° |
| 2026-05-07 11:42 | 25.08410 | 51.70223 | 3376 ft | 223 kts | 340° |
| 2026-05-07 11:42 | 25.09850 | 51.69617 | 3173 ft | 218 kts | 338° |
| 2026-05-07 11:43 | 25.11235 | 51.68994 | 2877 ft | 217 kts | 337° |
| 2026-05-07 11:43 | 25.12633 | 51.68372 | 2592 ft | 216 kts | 337° |
| 2026-05-07 11:43 | 25.14025 | 51.67760 | 2330 ft | 213 kts | 337° |
| 2026-05-07 11:43 | 25.15385 | 51.67161 | 2070 ft | 207 kts | 337° |
| 2026-05-07 11:44 | 25.16705 | 51.66578 | 1783 ft | 201 kts | 337° |
| 2026-05-07 11:44 | 25.17985 | 51.66013 | 1547 ft | 194 kts | 337° |
| 2026-05-07 11:44 | 25.19200 | 51.65476 | 1306 ft | 187 kts | 337° |
| 2026-05-07 11:44 | 25.20367 | 51.64961 | 1088 ft | 172 kts | 337° |
| 2026-05-07 11:45 | 25.21439 | 51.64488 | 872 ft | 159 kts | 337° |
| 2026-05-07 11:45 | 25.22429 | 51.64044 | 657 ft | 151 kts | 338° |
| 2026-05-07 11:45 | 25.23374 | 51.63628 | 471 ft | 141 kts | 340° |
| 2026-05-07 11:45 | 25.24293 | 51.63234 | 314 ft | 141 kts | 339° |
| 2026-05-07 11:46 | 25.25216 | 51.62838 | 138 ft | 144 kts | 340° |
| 2026-05-07 11:46 | 25.26146 | 51.62428 | 33 ft | 140 kts | 339° |
| 2026-05-07 11:46 | 25.26989 | 51.62060 | 31 ft | 111 kts | 338° |
| 2026-05-07 11:46 | 25.27496 | 51.61832 | 30 ft | 61 kts | 339° |
| 2026-05-07 11:47 | 25.27864 | 51.61671 | 29 ft | 52 kts | 337° |
| 2026-05-07 11:47 | 25.28085 | 51.61491 | 28 ft | 27 kts | 310° |
| 2026-05-07 11:47 | 25.28080 | 51.61382 | 28 ft | 14 kts | 189° |
| 2026-05-07 11:47 | 25.27966 | 51.61422 | 28 ft | 19 kts | 157° |
| 2026-05-07 11:48 | 25.27837 | 51.61477 | 28 ft | 20 kts | 158° |
| 2026-05-07 11:48 | 25.27703 | 51.61539 | 28 ft | 22 kts | 159° |
| 2026-05-07 11:48 | 25.27554 | 51.61604 | 28 ft | 24 kts | 158° |
| 2026-05-07 11:48 | 25.27396 | 51.61674 | 29 ft | 26 kts | 158° |
| 2026-05-07 11:49 | 25.27227 | 51.61750 | 28 ft | 25 kts | 159° |
| 2026-05-07 11:49 | 25.27120 | 51.61782 | 28 ft | 10 kts | 203° |
| 2026-05-07 11:49 | 25.27083 | 51.61707 | 28 ft | 14 kts | 249° |
| 2026-05-07 11:49 | 25.27045 | 51.61603 | 29 ft | 16 kts | 248° |
| 2026-05-07 11:50 | 25.27000 | 51.61486 | 29 ft | 17 kts | 240° |
| 2026-05-07 11:50 | 25.26900 | 51.61420 | 29 ft | 18 kts | 203° |
| 2026-05-07 11:50 | 25.26849 | 51.61378 | 29 ft | 4 kts | 258° |
| 2026-05-07 11:50 | 25.26867 | 51.61317 | 29 ft | 7 kts | 294° |
| 2026-05-07 11:51 | 25.26870 | 51.61309 | 29 ft | 1 kts | 294° |
| 2026-05-07 11:51 | 25.26874 | 51.61300 | 29 ft | 0 kts | 293° |
| 2026-05-07 11:51 | 25.26323 | 51.62350 | 33 ft | 137 kts | 339° |
| 2026-05-07 11:52 | 25.25535 | 51.62698 | 65 ft | 145 kts | 339° |
| 2026-05-07 11:52 | 25.26427 | 51.62304 | 34 ft | 135 kts | 339° |
| 2026-05-07 11:52 | 25.26973 | 51.62067 | 32 ft | 113 kts | 338° |